M I D A S
Marine Information and Data Acquisition System
Tripno 1001 of the Zeeleeuw from 2005-08-04 09:37:51 to 2005-08-04 16:00:00
Back to CruiseResearch ActivitiesStationsMapUnderway DataData graphs

EquipmentUnitsComment
TimeDGPSUTC
LatitudeDGPSDM.mWGS84
LongitudeDGPSDM.mWGS84
TemperatureSBE03/SBE38deg celciusITS90
ConductivitySBE21S/mITS90
SalinitySBE21 Practical Salinity Units
ChlorophylAChelsea fluorimeterg/lCalibrated in Aceton
Missing or incorrect values are displayed as -999
Sea surface data collected by the RV Zeeleeuw from 2005-08-04 09:39:46 to 2005-08-16 12:13:05
                                                                                    Next 1000 lines
Time Latitude Longitude Temperature Conductivity Salinity ChlorophylA
2005-08-04 09:39:57 51°13.597 2°56.092 21.9849 -999 -999 2.286306
2005-08-04 09:40:02 51°13.598 2°56.089 21.9805 -999 -999 2.320016
2005-08-04 09:40:06 51°13.599 2°56.085 21.9852 -999 -999 2.320016
2005-08-04 09:40:11 51°13.601 2°56.079 21.9833 -999 -999 2.320016
2005-08-04 09:40:18 51°13.603 2°56.072 21.9839 -999 -999 2.320016
2005-08-04 09:40:22 51°13.605 2°56.067 21.9875 -999 -999 2.320016
2005-08-04 09:40:27 51°13.607 2°56.06 21.9871 -999 -999 2.320016
2005-08-04 09:40:31 51°13.609 2°56.054 21.9871 -999 -999 2.320016
2005-08-04 09:40:37 51°13.611 2°56.046 21.9873 -999 -999 2.320016
2005-08-04 09:40:42 51°13.614 2°56.037 21.9846 -999 -999 2.320016
2005-08-04 09:40:47 51°13.616 2°56.03 21.985 -999 -999 2.320016
2005-08-04 09:40:51 51°13.618 2°56.023 21.9892 -999 -999 2.320016
2005-08-04 09:40:57 51°13.621 2°56.013 21.9902 -999 -999 2.320016
2005-08-04 09:41:03 51°13.624 2°56.004 21.9905 -999 -999 2.320016
2005-08-04 09:41:07 51°13.626 2°55.996 21.9937 -999 -999 2.320016
2005-08-04 09:41:12 51°13.629 2°55.988 21.9952 -999 -999 2.320016
2005-08-04 09:41:17 51°13.632 2°55.979 21.9956 -999 -999 2.320016
2005-08-04 09:41:22 51°13.635 2°55.97 21.9942 -999 -999 2.320016
2005-08-04 09:41:27 51°13.638 2°55.961 21.9929 -999 -999 2.320016
2005-08-04 09:41:31 51°13.641 2°55.954 21.9921 -999 -999 2.320016
2005-08-04 09:41:37 51°13.644 2°55.944 21.9886 -999 -999 2.320016
2005-08-04 09:41:42 51°13.647 2°55.936 21.9883 -999 -999 2.320016
2005-08-04 09:41:46 51°13.65 2°55.929 21.9882 -999 -999 2.320016
2005-08-04 09:41:52 51°13.653 2°55.917 21.9983 -999 -999 2.320016
2005-08-04 09:41:57 51°13.656 2°55.909 20.9639 -999 -999 2.320016
2005-08-04 09:42:02 51°13.659 2°55.9 20.565 -999 -999 2.320016
2005-08-04 09:42:07 51°13.662 2°55.891 20.1156 -999 -999 2.286306
2005-08-04 09:42:12 51°13.664 2°55.882 19.9763 0.146574 0.769055 2.320016
2005-08-04 09:42:17 51°13.667 2°55.874 19.8849 0.969663 5.764064 2.320016
2005-08-04 09:42:22 51°13.669 2°55.865 19.8175 1.886406 11.966427 2.320016
2005-08-04 09:42:27 51°13.671 2°55.857 19.7702 1.886406 11.966427 2.320016
2005-08-04 09:42:31 51°13.672 2°55.851 19.7434 2.048127 13.172763 2.320016
2005-08-04 09:42:37 51°13.674 2°55.843 19.7044 3.21634 21.815022 2.320016
2005-08-04 09:42:42 51°13.675 2°55.836 19.687 3.812019 26.589284 2.320016
2005-08-04 09:42:46 51°13.676 2°55.83 19.6863 3.905074 27.496374 2.320016
2005-08-04 09:42:51 51°13.677 2°55.822 19.6698 3.960005 28.048785 2.320016
2005-08-04 09:42:57 51°13.679 2°55.814 19.6528 3.960005 28.048785 2.320016
2005-08-04 09:43:02 51°13.68 2°55.806 19.6473 3.918136 27.817332 2.320016
2005-08-04 09:43:07 51°13.681 2°55.798 19.6317 3.942596 28.079083 2.320016
2005-08-04 09:43:12 51°13.682 2°55.791 19.645 3.926844 28.000493 2.320016
2005-08-04 09:43:17 51°13.683 2°55.785 19.6167 3.860936 27.512004 2.320016
2005-08-04 09:43:22 51°13.684 2°55.779 19.6091 3.850264 27.447684 2.320016
2005-08-04 09:43:27 51°13.684 2°55.772 19.5955 3.850264 27.447684 2.320016
2005-08-04 09:43:32 51°13.685 2°55.767 19.5863 3.839177 27.380026 2.320016
2005-08-04 09:43:37 51°13.685 2°55.763 19.5771 3.879901 27.72019 2.320016
2005-08-04 09:43:42 51°13.686 2°55.761 19.5784 3.805296 27.140264 2.320016
2005-08-04 09:43:47 51°13.686 2°55.759 19.5744 3.825293 27.306725 2.286306
2005-08-04 09:43:52 51°13.686 2°55.759 19.5683 3.824257 27.309072 2.320016
2005-08-04 09:43:57 51°13.686 2°55.761 19.5735 3.824257 27.309072 2.320016
2005-08-04 09:44:02 51°13.687 2°55.764 19.5882 3.842494 27.466397 2.320016
2005-08-04 09:44:06 51°13.687 2°55.767 19.5907 3.76686 26.875187 2.320016
2005-08-04 09:44:11 51°13.688 2°55.769 19.6133 3.872026 27.719411 2.320016
2005-08-04 09:44:16 51°13.688 2°55.769 19.6196 3.851716 27.564025 2.320016
2005-08-04 09:44:22 51°13.687 2°55.769 19.6295 3.8312 27.404529 2.320016
2005-08-04 09:44:26 51°13.687 2°55.767 19.6461 3.8312 27.404529 2.320016
2005-08-04 09:44:30 51°13.686 2°55.765 19.6527 3.832133 27.415986 2.320016
2005-08-04 09:44:37 51°13.684 2°55.761 19.6525 3.812447 27.260122 2.320016
2005-08-04 09:44:42 51°13.683 2°55.759 19.6563 3.788617 27.068007 2.320016
2005-08-04 09:44:47 51°13.681 2°55.756 19.6582 3.760437 26.838679 2.320016
2005-08-04 09:44:51 51°13.681 2°55.755 19.6408 3.723868 26.542866 2.320016
2005-08-04 09:44:57 51°13.681 2°55.756 19.6303 3.723868 26.542866 2.320016
2005-08-04 09:45:02 51°13.682 2°55.757 19.6203 3.74324 26.687742 2.320016
2005-08-04 09:45:07 51°13.684 2°55.76 19.6132 3.700975 26.347352 2.320016
2005-08-04 09:45:12 51°13.686 2°55.763 19.6132 3.6583 26.006371 2.320016
2005-08-04 09:45:17 51°13.69 2°55.766 19.6236 3.672697 26.117464 2.286306
2005-08-04 09:45:22 51°13.694 2°55.768 19.6252 3.601648 25.558517 2.286306
2005-08-04 09:45:26 51°13.698 2°55.769 19.6242 3.601648 25.558517 2.286306
2005-08-04 09:45:31 51°13.703 2°55.77 19.6295 3.709469 26.412971 2.320016
2005-08-04 09:45:37 51°13.708 2°55.769 19.6386 3.696625 26.317367 2.320016
2005-08-04 09:45:42 51°13.712 2°55.768 19.6462 3.681916 26.207542 2.320016
2005-08-04 09:45:47 51°13.717 2°55.766 19.6402 3.706983 26.407933 2.320016
2005-08-04 09:45:52 51°13.721 2°55.763 19.6459 3.666587 26.088504 2.320016
2005-08-04 09:45:57 51°13.726 2°55.759 19.6496 3.666587 26.088504 2.320016
2005-08-04 09:46:01 51°13.73 2°55.754 19.6555 3.72884 26.579739 2.320016
2005-08-04 09:46:06 51°13.733 2°55.748 19.6588 3.649186 25.950324 2.320016
2005-08-04 09:46:11 51°13.737 2°55.742 19.6591 3.684609 26.226866 2.286306
2005-08-04 09:46:15 51°13.74 2°55.736 19.6635 3.665136 26.070337 2.320016
2005-08-04 09:46:22 51°13.746 2°55.725 19.6599 3.658404 26.015812 2.320016
2005-08-04 09:46:26 51°13.751 2°55.717 19.6781 3.658404 26.015812 2.320016
2005-08-04 09:46:32 51°13.757 2°55.707 19.6711 3.642247 25.887518 2.320016
2005-08-04 09:46:36 51°13.762 2°55.699 19.6803 3.603823 25.58174 2.320016
2005-08-04 09:46:42 51°13.769 2°55.688 19.6929 3.635204 25.826331 2.320016
2005-08-04 09:46:46 51°13.775 2°55.68 19.7013 3.616976 25.680959 2.320016
2005-08-04 09:46:52 51°13.783 2°55.669 19.6885 3.604755 25.582947 2.286306
2005-08-04 09:46:57 51°13.791 2°55.659 19.677 3.604755 25.582947 2.286306
2005-08-04 09:47:02 51°13.8 2°55.65 19.6744 3.622568 25.72023 2.320016
2005-08-04 09:47:07 51°13.808 2°55.641 19.6721 3.586321 25.433363 2.320016
2005-08-04 09:47:12 51°13.817 2°55.633 19.6616 3.588703 25.449266 2.320016
2005-08-04 09:47:16 51°13.825 2°55.627 19.6392 3.56561 25.262815 2.320016
2005-08-04 09:47:22 51°13.837 2°55.618 19.634 3.535373 25.022466 2.320016
2005-08-04 09:47:26 51°13.846 2°55.611 19.6312 3.535373 25.022466 2.320016
2005-08-04 09:47:31 51°13.856 2°55.604 19.6198 3.58249 25.393449 2.286306
2005-08-04 09:47:36 51°13.866 2°55.597 19.6025 3.553598 25.169966 2.286306
2005-08-04 09:47:42 51°13.878 2°55.589 19.5987 3.60082 25.543538 2.286306
2005-08-04 09:47:47 51°13.888 2°55.582 19.5887 3.610865 25.627226 2.286306
2005-08-04 09:47:52 51°13.899 2°55.575 19.5749 3.629093 25.77822 2.286306
2005-08-04 09:47:57 51°13.909 2°55.568 19.5665 3.629093 25.77822 2.286306
2005-08-04 09:48:02 51°13.92 2°55.56 19.5615 3.595746 25.521978 2.320016
2005-08-04 09:48:07 51°13.93 2°55.552 19.5568 3.660165 26.035451 2.320016
2005-08-04 09:48:11 51°13.94 2°55.545 19.5543 3.676737 26.173422 2.286306
2005-08-04 09:48:15 51°13.948 2°55.539 19.5576 3.618737 25.722761 2.320016
2005-08-04 09:48:22 51°13.962 2°55.53 19.5583 3.685645 26.258759 2.320016
2005-08-04 09:48:27 51°13.973 2°55.523 19.5596 3.685645 26.258759 2.320016
2005-08-04 09:48:31 51°13.983 2°55.516 19.5609 3.768725 26.925699 2.320016
2005-08-04 09:48:37 51°13.995 2°55.508 19.5594 3.761163 26.871193 2.320016
2005-08-04 09:48:42 51°14.005 2°55.501 19.5616 3.676013 26.201035 2.320016
2005-08-04 09:48:46 51°14.015 2°55.494 19.5578 3.744173 26.743932 2.320016
2005-08-04 09:48:52 51°14.027 2°55.486 19.5573 3.777532 27.010008 2.320016
2005-08-04 09:48:56 51°14.037 2°55.479 19.5501 3.777532 27.010008 2.320016
2005-08-04 09:49:02 51°14.049 2°55.471 19.5487 3.740133 26.713886 2.286306
2005-08-04 09:49:06 51°14.058 2°55.464 19.5401 3.752771 26.814077 2.320016
2005-08-04 09:49:11 51°14.068 2°55.458 19.5386 3.719725 26.552704 2.320016
2005-08-04 09:49:17 51°14.081 2°55.448 19.5485 3.72708 26.610957 2.320016
2005-08-04 09:49:22 51°14.091 2°55.44 19.5518 3.75215 26.810634 2.286306
2005-08-04 09:49:26 51°14.1 2°55.434 19.5529 3.75215 26.810634 2.286306
2005-08-04 09:49:31 51°14.112 2°55.425 19.5519 3.75101 26.803084 2.286306
2005-08-04 09:49:37 51°14.123 2°55.417 19.5504 3.764478 26.912892 2.320016
2005-08-04 09:49:42 51°14.134 2°55.408 19.5502 3.698697 26.394052 2.286306
2005-08-04 09:49:46 51°14.144 2°55.4 19.5488 3.782919 27.064275 2.320016
2005-08-04 09:49:51 51°14.154 2°55.39 19.5483 3.701598 26.418473 2.320016
2005-08-04 09:49:55 51°14.163 2°55.382 19.5482 3.701598 26.418473 2.320016
2005-08-04 09:50:02 51°14.178 2°55.367 19.5464 3.735368 26.684997 2.320016
2005-08-04 09:50:07 51°14.189 2°55.355 19.5567 3.757537 26.859312 2.286306
2005-08-04 09:50:12 51°14.2 2°55.343 19.5598 3.697247 26.382574 2.286306
2005-08-04 09:50:17 51°14.211 2°55.33 19.5632 3.774942 26.997933 2.320016
2005-08-04 09:50:22 51°14.222 2°55.316 19.57 3.838247 27.502143 2.286306
2005-08-04 09:50:27 51°14.232 2°55.301 19.5807 3.838247 27.502143 2.286306
2005-08-04 09:50:32 51°14.243 2°55.286 19.5885 3.742412 26.740842 2.320016
2005-08-04 09:50:36 51°14.252 2°55.272 19.5914 3.798874 27.190029 2.286306
2005-08-04 09:50:42 51°14.263 2°55.253 19.5994 3.765929 26.926889 2.320016
2005-08-04 09:50:46 51°14.271 2°55.24 19.6028 3.702634 26.422767 2.286306
2005-08-04 09:50:51 51°14.282 2°55.221 19.6002 3.71351 26.505939 2.320016
2005-08-04 09:50:57 51°14.292 2°55.201 19.5937 3.71351 26.505939 2.320016
2005-08-04 09:51:02 51°14.301 2°55.183 19.5971 3.8197 27.343966 2.286306
2005-08-04 09:51:06 51°14.308 2°55.168 19.595 3.723662 26.576515 2.320016
2005-08-04 09:51:12 51°14.318 2°55.146 19.5983 3.824777 27.374215 2.320016
2005-08-04 09:51:16 51°14.325 2°55.13 19.6004 3.824777 27.374215 2.320016
2005-08-04 09:51:22 51°14.335 2°55.108 19.6015 3.829025 27.400899 2.286306
2005-08-04 09:51:26 51°14.342 2°55.092 19.5992 3.829025 27.400899 2.286306
2005-08-04 09:51:31 51°14.352 2°55.071 19.5951 3.807473 27.229686 2.320016
2005-08-04 09:51:35 51°14.358 2°55.055 19.5887 3.79991 27.169633 2.320016
2005-08-04 09:51:42 51°14.37 2°55.029 19.575 3.804572 27.20665 2.286306
2005-08-04 09:51:47 51°14.379 2°55.01 19.5601 3.887467 27.865408 2.320016
2005-08-04 09:51:52 51°14.39 2°54.991 19.5455 3.868918 27.715653 2.286306
2005-08-04 09:51:56 51°14.4 2°54.975 19.5188 3.868918 27.715653 2.286306
2005-08-04 09:52:02 51°14.412 2°54.957 19.4389 3.818249 27.312247 2.286306
2005-08-04 09:52:06 51°14.423 2°54.942 19.426 4.023862 28.95322 2.320016
2005-08-04 09:52:11 51°14.435 2°54.926 19.4172 4.043869 29.116724 2.320016
2005-08-04 09:52:16 51°14.448 2°54.912 19.419 4.06284 29.274246 2.286306
2005-08-04 09:52:22 51°14.463 2°54.897 19.4263 4.084093 29.452986 2.286306
2005-08-04 09:52:27 51°14.476 2°54.885 19.4335 4.084093 29.452986 2.286306
2005-08-04 09:52:31 51°14.489 2°54.876 19.4317 4.104517 29.625306 2.286306
2005-08-04 09:52:37 51°14.506 2°54.866 19.4419 4.164551 30.136431 2.286306
2005-08-04 09:52:42 51°14.521 2°54.858 19.4457 4.206031 30.496713 2.320016
2005-08-04 09:52:46 51°14.533 2°54.853 19.4463 4.225942 30.676562 2.286306
2005-08-04 09:52:52 51°14.552 2°54.845 19.4473 4.234965 30.759344 2.320016
2005-08-04 09:52:57 51°14.568 2°54.839 19.4521 4.234965 30.759344 2.320016
2005-08-04 09:53:02 51°14.583 2°54.832 19.4591 4.240151 30.804797 2.286306
2005-08-04 09:53:06 51°14.598 2°54.826 19.4579 4.243469 30.831697 2.286306
2005-08-04 09:53:11 51°14.612 2°54.819 19.4539 4.244403 30.837544 2.286306
2005-08-04 09:53:17 51°14.631 2°54.81 19.4533 4.244506 30.83552 2.286306
2005-08-04 09:53:22 51°14.647 2°54.801 19.455 4.244403 30.833533 2.286306
2005-08-04 09:53:26 51°14.659 2°54.795 19.4466 4.244403 30.833533 2.286306
2005-08-04 09:53:32 51°14.68 2°54.783 19.432 4.244092 30.829866 2.320016
2005-08-04 09:53:37 51°14.694 2°54.776 19.4201 4.24378 30.824481 2.286306
2005-08-04 09:53:42 51°14.71 2°54.767 19.4077 4.244091 30.824712 2.286306
2005-08-04 09:53:46 51°14.724 2°54.759 19.3949 4.244714 30.829754 2.286306
2005-08-04 09:53:51 51°14.74 2°54.751 19.3844 4.245129 30.833116 2.286306
2005-08-04 09:53:55 51°14.752 2°54.745 19.3803 4.245129 30.833116 2.286306
2005-08-04 09:54:02 51°14.773 2°54.735 19.3779 4.245336 30.835942 2.320016
2005-08-04 09:54:06 51°14.788 2°54.728 19.3872 4.244506 30.834374 2.320016
2005-08-04 09:54:12 51°14.805 2°54.72 19.3974 4.243366 30.833149 2.320016
2005-08-04 09:54:17 51°14.821 2°54.712 19.3981 4.241914 30.829401 2.286306
2005-08-04 09:54:22 51°14.837 2°54.704 19.3965 4.240047 30.823434 2.286306
2005-08-04 09:54:27 51°14.853 2°54.697 19.4002 4.240047 30.823434 2.286306
2005-08-04 09:54:31 51°14.868 2°54.69 19.4073 4.238181 30.816319 2.320016
2005-08-04 09:54:37 51°14.885 2°54.682 19.4183 4.236833 30.812262 2.320016
2005-08-04 09:54:42 51°14.901 2°54.674 19.4157 4.235796 30.804994 2.286306
2005-08-04 09:54:47 51°14.917 2°54.666 19.4117 4.235381 30.798763 2.286306
2005-08-04 09:54:52 51°14.934 2°54.659 19.4107 4.235692 30.799568 2.286306
2005-08-04 09:54:57 51°14.949 2°54.651 19.4146 4.235692 30.799568 2.286306
2005-08-04 09:55:02 51°14.966 2°54.643 19.4136 4.23621 30.802628 2.320016
2005-08-04 09:55:07 51°14.982 2°54.635 19.413 4.23704 30.807065 2.286306
2005-08-04 09:55:11 51°14.994 2°54.63 19.4107 4.239114 30.819877 2.286306
2005-08-04 09:55:17 51°15.014 2°54.62 19.4063 4.242433 30.843928 2.320016
2005-08-04 09:55:22 51°15.03 2°54.613 19.4046 4.244611 30.861594 2.320016
2005-08-04 09:55:26 51°15.044 2°54.606 19.4013 4.244611 30.861594 2.320016
2005-08-04 09:55:31 51°15.06 2°54.598 19.399 4.24627 30.873907 2.320016
2005-08-04 09:55:35 51°15.073 2°54.592 19.3938 4.247826 30.886527 2.320016
2005-08-04 09:55:42 51°15.094 2°54.582 19.3935 4.249278 30.897732 2.320016
2005-08-04 09:55:46 51°15.108 2°54.574 19.4005 4.250418 30.908137 2.320016
2005-08-04 09:55:52 51°15.125 2°54.566 19.4023 4.251041 30.914911 2.286306
2005-08-04 09:55:57 51°15.141 2°54.558 19.4048 4.251041 30.914911 2.286306
2005-08-04 09:56:02 51°15.158 2°54.551 19.409 4.251248 30.918894 2.320016
2005-08-04 09:56:06 51°15.171 2°54.545 19.4094 4.251145 30.920354 2.286306
2005-08-04 09:56:12 51°15.19 2°54.535 19.4116 4.251041 30.921813 2.286306
2005-08-04 09:56:17 51°15.206 2°54.528 19.4111 4.250626 30.919597 2.286306
2005-08-04 09:56:22 51°15.222 2°54.519 19.412 4.250108 30.914238 2.286306
2005-08-04 09:56:26 51°15.236 2°54.512 19.4123 4.250108 30.914238 2.286306
2005-08-04 09:56:31 51°15.252 2°54.504 19.4158 4.250211 30.913929 2.286306
2005-08-04 09:56:35 51°15.265 2°54.498 19.4151 4.250522 30.914729 2.286306
2005-08-04 09:56:42 51°15.286 2°54.487 19.4159 4.251145 30.918053 2.286306
2005-08-04 09:56:46 51°15.3 2°54.481 19.4167 4.252389 30.926426 2.286306
2005-08-04 09:56:52 51°15.318 2°54.472 19.4161 4.253841 30.937634 2.286306
2005-08-04 09:56:56 51°15.332 2°54.465 19.4156 4.253841 30.937634 2.286306
2005-08-04 09:57:02 51°15.35 2°54.457 19.4164 4.254774 30.944633 2.286306
2005-08-04 09:57:06 51°15.363 2°54.451 19.4187 4.255604 30.950215 2.286306
2005-08-04 09:57:12 51°15.382 2°54.442 19.4221 4.256434 30.955797 2.286306
2005-08-04 09:57:17 51°15.398 2°54.434 19.4207 4.256952 30.959429 2.286306
2005-08-04 09:57:22 51°15.414 2°54.426 19.4224 4.257471 30.962486 2.286306
2005-08-04 09:57:26 51°15.428 2°54.419 19.4237 4.257471 30.962486 2.286306
2005-08-04 09:57:32 51°15.446 2°54.411 19.4264 4.25799 30.966694 2.286306
2005-08-04 09:57:36 51°15.46 2°54.404 19.4203 4.258612 30.971744 2.286306
2005-08-04 09:57:42 51°15.478 2°54.396 19.4127 4.25913 30.975376 2.286306
2005-08-04 09:57:47 51°15.495 2°54.387 19.3982 4.259649 30.978432 2.286306
2005-08-04 09:57:52 51°15.511 2°54.379 19.3823 4.260582 30.984855 2.286306
2005-08-04 09:57:57 51°15.525 2°54.372 19.373 4.260582 30.984855 2.286306
2005-08-04 09:58:02 51°15.541 2°54.364 19.3633 4.261723 30.99296 2.286306
2005-08-04 09:58:07 51°15.557 2°54.356 19.3595 4.263175 31.004168 2.286306
2005-08-04 09:58:11 51°15.571 2°54.348 19.3558 4.265042 31.019895 2.286306
2005-08-04 09:58:17 51°15.588 2°54.34 19.3495 4.268257 31.049457 2.286306
2005-08-04 09:58:22 51°15.604 2°54.333 19.3478 4.275103 31.112558 2.286306
2005-08-04 09:58:27 51°15.62 2°54.325 19.3434 4.275103 31.112558 2.286306
2005-08-04 09:58:31 51°15.634 2°54.318 19.3388 4.281119 31.170704 2.286306
2005-08-04 09:58:37 51°15.651 2°54.311 19.3359 4.284023 31.201856 2.320016
2005-08-04 09:58:42 51°15.667 2°54.303 19.3289 4.284853 31.216739 2.286306
2005-08-04 09:58:46 51°15.681 2°54.296 19.3199 4.283608 31.211268 2.286306
2005-08-04 09:58:52 51°15.698 2°54.288 19.309 4.279563 31.18302 2.286306
2005-08-04 09:58:57 51°15.714 2°54.281 19.2981 4.279563 31.18302 2.286306
2005-08-04 09:59:02 51°15.729 2°54.273 19.2934 4.262969 31.052152 2.286306
2005-08-04 09:59:07 51°15.745 2°54.266 19.283 4.277593 31.174545 2.286306
2005-08-04 09:59:12 51°15.761 2°54.259 19.2685 4.275311 31.160631 2.286306
2005-08-04 09:59:17 51°15.777 2°54.251 19.2663 4.273652 31.151777 2.286306
2005-08-04 09:59:22 51°15.793 2°54.243 19.2662 4.272615 31.149146 2.286306
2005-08-04 09:59:27 51°15.81 2°54.234 19.2733 4.272615 31.149146 2.286306
2005-08-04 09:59:32 51°15.824 2°54.227 19.2793 4.27137 31.147732 2.286306
2005-08-04 09:59:37 51°15.839 2°54.218 19.2874 4.270644 31.148795 2.286306
2005-08-04 09:59:42 51°15.855 2°54.209 19.2945 4.270437 31.154082 2.286306
2005-08-04 09:59:46 51°15.867 2°54.203 19.306 4.270437 31.161643 2.286306
2005-08-04 09:59:51 51°15.885 2°54.193 19.3145 4.270126 31.166673 2.286306
2005-08-04 09:59:57 51°15.902 2°54.184 19.3238 4.270126 31.166673 2.286306
2005-08-04 10:00:02 51°15.918 2°54.176 19.3227 4.2694 31.162504 2.286306
2005-08-04 10:00:06 51°15.931 2°54.17 19.3235 4.268674 31.155427 2.286306
2005-08-04 10:00:10 51°15.942 2°54.165 19.3235 4.267741 31.144334 2.286306
2005-08-04 10:00:17 51°15.959 2°54.157 19.3267 4.267015 31.13377 2.286306
2005-08-04 10:00:22 51°15.97 2°54.152 19.3241 4.266703 31.124846 2.286306
2005-08-04 10:00:26 51°15.98 2°54.148 19.3208 4.266703 31.124846 2.286306
2005-08-04 10:00:31 51°15.992 2°54.144 19.3242 4.267325 31.122942 2.286306
2005-08-04 10:00:37 51°16.003 2°54.141 19.3262 4.267844 31.122517 2.320016
2005-08-04 10:00:42 51°16.012 2°54.138 19.3308 4.269088 31.128582 2.286306
2005-08-04 10:00:47 51°16.022 2°54.137 19.3275 4.271267 31.144564 2.286306
2005-08-04 10:00:52 51°16.031 2°54.136 19.328 4.274171 31.167036 2.286306
2005-08-04 10:00:57 51°16.04 2°54.135 19.3273 4.274171 31.167036 2.286306
2005-08-04 10:01:02 51°16.047 2°54.135 19.3258 4.277697 31.195737 2.286306
2005-08-04 10:01:07 51°16.055 2°54.136 19.3237 4.279771 31.212623 2.286306
2005-08-04 10:01:12 51°16.063 2°54.135 19.3248 4.280705 31.219639 2.286306
2005-08-04 10:01:15 51°16.068 2°54.136 19.3344 4.281016 31.220425 2.286306
2005-08-04 10:01:22 51°16.078 2°54.137 19.3357 4.281223 31.221532 2.286306
2005-08-04 10:01:26 51°16.083 2°54.137 19.3395 4.281223 31.221532 2.286306
2005-08-04 10:01:30 51°16.088 2°54.138 19.3449 4.281016 31.219843 2.286306
2005-08-04 10:01:37 51°16.096 2°54.14 19.3479 4.280912 31.219581 2.286306
2005-08-04 10:01:42 51°16.102 2°54.142 19.3485 4.280809 31.219319 2.286306
2005-08-04 10:01:47 51°16.108 2°54.144 19.3497 4.280394 31.215942 2.286306
2005-08-04 10:01:52 51°16.113 2°54.146 19.3511 4.279979 31.210237 2.286306
2005-08-04 10:01:56 51°16.118 2°54.148 19.3492 4.279979 31.210237 2.286306
2005-08-04 10:02:02 51°16.123 2°54.15 19.349 4.279771 31.205057 2.286306
2005-08-04 10:02:07 51°16.128 2°54.153 19.3531 4.276037 31.171766 2.286306
2005-08-04 10:02:11 51°16.132 2°54.156 19.3501 4.278527 31.189113 2.286306
2005-08-04 10:02:17 51°16.137 2°54.159 19.3506 4.278215 31.184837 2.286306
2005-08-04 10:02:22 51°16.142 2°54.162 19.3511 4.275207 31.158625 2.286306
2005-08-04 10:02:26 51°16.146 2°54.166 19.3484 4.275207 31.158625 2.286306
2005-08-04 10:02:31 51°16.151 2°54.17 19.3445 4.278734 31.18615 2.286306
2005-08-04 10:02:37 51°16.157 2°54.175 19.3452 4.27863 31.185306 2.286306
2005-08-04 10:02:42 51°16.161 2°54.18 19.349 4.276348 31.166163 2.286306
2005-08-04 10:02:46 51°16.165 2°54.184 19.3497 4.278008 31.179081 2.286306
2005-08-04 10:02:52 51°16.17 2°54.19 19.3475 4.275415 31.15799 2.286306
2005-08-04 10:02:57 51°16.175 2°54.197 19.3447 4.275415 31.15799 2.286306
2005-08-04 10:03:02 51°16.179 2°54.202 19.345 4.278215 31.180769 2.286306
2005-08-04 10:03:06 51°16.184 2°54.208 19.3461 4.277904 31.1794 2.286306
2005-08-04 10:03:11 51°16.188 2°54.213 19.3479 4.275933 31.164531 2.286306
2005-08-04 10:03:17 51°16.193 2°54.221 19.3475 4.276452 31.168169 2.286306
2005-08-04 10:03:22 51°16.197 2°54.227 19.3471 4.276556 31.168432 2.286306
2005-08-04 10:03:27 51°16.202 2°54.233 19.3491 4.276556 31.168432 2.286306
2005-08-04 10:03:32 51°16.206 2°54.239 19.3506 4.274896 31.155514 2.286306
2005-08-04 10:03:36 51°16.211 2°54.244 19.3506 4.273963 31.148502 2.286306
2005-08-04 10:03:42 51°16.215 2°54.25 19.3503 4.276867 31.172706 2.286306
2005-08-04 10:03:47 51°16.22 2°54.256 19.3507 4.277178 31.174656 2.286306
2005-08-04 10:03:51 51°16.223 2°54.26 19.3518 4.274481 31.152139 2.286306
2005-08-04 10:03:57 51°16.227 2°54.266 19.3522 4.274481 31.152139 2.286306
2005-08-04 10:04:02 51°16.231 2°54.269 19.3515 4.273755 31.146234 2.286306
2005-08-04 10:04:07 51°16.235 2°54.273 19.3522 4.273652 31.14481 2.286306
2005-08-04 10:04:12 51°16.238 2°54.277 19.3503 4.272614 31.135794 2.286306
2005-08-04 10:04:17 51°16.241 2°54.28 19.3519 4.274896 31.154352 2.286306
2005-08-04 10:04:22 51°16.243 2°54.283 19.3509 4.271888 31.129889 2.286306
2005-08-04 10:04:26 51°16.246 2°54.286 19.3502 4.271888 31.129889 2.286306
2005-08-04 10:04:31 51°16.249 2°54.288 19.3496 4.270955 31.121718 2.286306
2005-08-04 10:04:37 51°16.251 2°54.291 19.349 4.273444 31.141381 2.286306
2005-08-04 10:04:42 51°16.254 2°54.294 19.3515 4.270955 31.120558 2.286306
2005-08-04 10:04:47 51°16.256 2°54.296 19.3514 4.271577 31.126198 2.286306
2005-08-04 10:04:52 51°16.259 2°54.299 19.3515 4.27334 31.140538 2.286306
2005-08-04 10:04:57 51°16.26 2°54.301 19.3508 4.27334 31.140538 2.286306
2005-08-04 10:05:02 51°16.261 2°54.302 19.3477 4.269192 31.1068 2.286306
2005-08-04 10:05:06 51°16.262 2°54.303 19.3485 4.267843 31.096415 2.286306
2005-08-04 10:05:12 51°16.263 2°54.306 19.348 4.269088 31.106536 2.286306
2005-08-04 10:05:17 51°16.264 2°54.308 19.3466 4.272718 31.136057 2.286306
2005-08-04 10:05:22 51°16.265 2°54.31 19.3487 4.271162 31.123405 2.286306
2005-08-04 10:05:27 51°16.265 2°54.31 19.3471 4.271162 31.123405 2.286306
2005-08-04 10:05:32 51°16.264 2°54.311 19.3463 4.271474 31.125935 2.286306
2005-08-04 10:05:35 51°16.264 2°54.313 19.3673 4.272407 31.134107 2.286306
2005-08-04 10:05:42 51°16.264 2°54.315 19.3569 4.271681 31.127622 2.286306
2005-08-04 10:05:47 51°16.264 2°54.316 19.3514 4.271059 31.123141 2.286306
2005-08-04 10:05:52 51°16.264 2°54.317 19.3482 4.271577 31.127939 2.286306
2005-08-04 10:05:56 51°16.263 2°54.318 19.3491 4.271577 31.127939 2.286306
2005-08-04 10:06:02 51°16.263 2°54.32 19.3483 4.271785 31.130786 2.286306
2005-08-04 10:06:07 51°16.263 2°54.321 19.3486 4.271474 31.128836 2.286306
2005-08-04 10:06:12 51°16.263 2°54.323 19.3485 4.270436 31.11692 2.286306
2005-08-04 10:06:17 51°16.262 2°54.324 19.3516 4.270436 31.116341 2.286306
2005-08-04 10:06:22 51°16.262 2°54.325 19.356 4.267947 31.098418 2.286306
2005-08-04 10:06:26 51°16.262 2°54.326 19.3592 4.267947 31.098418 2.286306
2005-08-04 10:06:32 51°16.261 2°54.327 19.3569 4.266495 31.088349 2.286306
2005-08-04 10:06:37 51°16.261 2°54.328 19.3625 4.268051 31.102159 2.286306
2005-08-04 10:06:42 51°16.26 2°54.33 19.366 4.265769 31.084183 2.286306
2005-08-04 10:06:47 51°16.26 2°54.331 19.3721 4.268258 31.103846 2.286306
2005-08-04 10:06:52 51°16.26 2°54.332 19.3613 4.268051 31.10158 2.286306
2005-08-04 10:06:57 51°16.259 2°54.333 19.3839 4.268051 31.10158 2.286306
2005-08-04 10:07:02 51°16.258 2°54.335 19.3694 4.267429 31.09478 2.286306
2005-08-04 10:07:06 51°16.258 2°54.336 19.3674 4.267532 31.093306 2.286306
2005-08-04 10:07:12 51°16.257 2°54.337 19.3702 4.26608 31.079762 2.286306
2005-08-04 10:07:17 51°16.257 2°54.338 19.365 4.266702 31.081926 2.286306
2005-08-04 10:07:22 51°16.257 2°54.339 19.3673 4.266599 31.079924 2.286306
2005-08-04 10:07:27 51°16.256 2°54.341 19.3654 4.266599 31.079924 2.286306
2005-08-04 10:07:31 51°16.255 2°54.341 19.3644 4.267117 31.082982 2.286306
2005-08-04 10:07:37 51°16.255 2°54.343 19.3673 4.267221 31.083246 2.286306
2005-08-04 10:07:42 51°16.254 2°54.344 19.3659 4.266391 31.076501 2.286306
2005-08-04 10:07:47 51°16.253 2°54.345 19.3655 4.267221 31.082667 2.286306
2005-08-04 10:07:52 51°16.253 2°54.346 19.3662 4.268051 31.089991 2.286306
2005-08-04 10:07:57 51°16.252 2°54.348 19.3654 4.268051 31.089991 2.286306
2005-08-04 10:08:02 51°16.251 2°54.349 19.3682 4.267532 31.086354 2.286306
2005-08-04 10:08:06 51°16.251 2°54.349 19.374 4.267428 31.085511 2.286306
2005-08-04 10:08:10 51°16.25 2°54.35 19.3729 4.268154 31.091992 2.286306
2005-08-04 10:08:17 51°16.248 2°54.351 19.374 4.267843 31.089463 2.286306
2005-08-04 10:08:22 51°16.247 2°54.352 19.3727 4.269295 31.101268 2.286306
2005-08-04 10:08:26 51°16.246 2°54.353 19.3726 4.269295 31.101268 2.286306
2005-08-04 10:08:32 51°16.245 2°54.354 19.3756 4.269295 31.101268 2.286306
2005-08-04 10:08:37 51°16.243 2°54.355 19.3755 4.268569 31.094786 2.286306
2005-08-04 10:08:42 51°16.242 2°54.356 19.3785 4.269399 31.099793 2.286306
2005-08-04 10:08:47 51°16.241 2°54.357 19.3775 4.269606 31.100321 2.286306
2005-08-04 10:08:52 51°16.24 2°54.358 19.3755 4.268673 31.091574 2.286306
2005-08-04 10:08:57 51°16.238 2°54.359 19.3749 4.268673 31.091574 2.286306
2005-08-04 10:09:02 51°16.237 2°54.36 19.3715 4.268362 31.089045 2.286306
2005-08-04 10:09:06 51°16.236 2°54.361 19.3747 4.268569 31.089573 2.286306
2005-08-04 10:09:11 51°16.235 2°54.362 19.3725 4.267117 31.077192 2.286306
2005-08-04 10:09:17 51°16.233 2°54.363 19.3731 4.268258 31.085307 2.286306
2005-08-04 10:09:22 51°16.232 2°54.364 19.3729 4.268569 31.087836 2.286306
2005-08-04 10:09:26 51°16.231 2°54.365 19.3713 4.268569 31.087836 2.286306
2005-08-04 10:09:32 51°16.23 2°54.366 19.3698 4.268569 31.088415 2.286306
2005-08-04 10:09:37 51°16.229 2°54.367 19.3699 4.267532 31.080564 2.286306
2005-08-04 10:09:42 51°16.228 2°54.368 19.3685 4.267221 31.078614 2.286306
2005-08-04 10:09:46 51°16.226 2°54.368 19.3686 4.267947 31.084515 2.286306
2005-08-04 10:09:50 51°16.226 2°54.369 19.3699 4.267325 31.079457 2.286306
2005-08-04 10:09:57 51°16.224 2°54.37 19.3712 4.267325 31.079457 2.286306
2005-08-04 10:10:02 51°16.222 2°54.37 19.3694 4.267947 31.085094 2.286306
2005-08-04 10:10:07 51°16.221 2°54.371 19.3702 4.267325 31.081194 2.286306
2005-08-04 10:10:12 51°16.22 2°54.372 19.3711 4.266495 31.075607 2.286306
2005-08-04 10:10:17 51°16.219 2°54.373 19.3712 4.265354 31.066334 2.286306
2005-08-04 10:10:22 51°16.218 2°54.374 19.3719 4.26691 31.079558 2.286306
2005-08-04 10:10:27 51°16.217 2°54.375 19.3693 4.26691 31.079558 2.286306
2005-08-04 10:10:32 51°16.216 2°54.376 19.3668 4.267014 31.079244 2.286306
2005-08-04 10:10:37 51°16.214 2°54.377 19.3673 4.267843 31.085988 2.286306
2005-08-04 10:10:42 51°16.213 2°54.378 19.368 4.267221 31.08093 2.286306
2005-08-04 10:10:47 51°16.212 2°54.378 19.3714 4.267532 31.083459 2.286306
2005-08-04 10:10:51 51°16.211 2°54.379 19.3714 4.266702 31.076714 2.286306
2005-08-04 10:10:57 51°16.21 2°54.38 19.372 4.266702 31.076714 2.286306
2005-08-04 10:11:02 51°16.209 2°54.38 19.3709 4.265458 31.066598 2.286306
2005-08-04 10:11:06 51°16.208 2°54.381 19.3718 4.264939 31.063541 2.286306
2005-08-04 10:11:10 51°16.207 2°54.382 19.3721 4.266184 31.074236 2.286306
2005-08-04 10:11:17 51°16.206 2°54.383 19.3714 4.267014 31.080981 2.286306
2005-08-04 10:11:22 51°16.205 2°54.384 19.3745 4.266599 31.07645 2.286306
2005-08-04 10:11:26 51°16.204 2°54.385 19.3756 4.266599 31.07645 2.286306
2005-08-04 10:11:32 51°16.203 2°54.386 19.3743 4.266806 31.077558 2.286306
2005-08-04 10:11:37 51°16.202 2°54.388 19.3741 4.265873 31.069392 2.286306
2005-08-04 10:11:42 51°16.201 2°54.388 19.3744 4.266391 31.073607 2.286306
2005-08-04 10:11:47 51°16.2 2°54.389 19.3787 4.266495 31.073871 2.286306
2005-08-04 10:11:52 51°16.199 2°54.39 19.3785 4.265769 31.06797 2.286306
2005-08-04 10:11:57 51°16.198 2°54.391 19.3773 4.265769 31.06797 2.286306
2005-08-04 10:12:02 51°16.197 2°54.392 19.3784 4.267428 31.0803 2.286306
2005-08-04 10:12:06 51°16.196 2°54.393 19.3806 4.267117 31.077771 2.286306
2005-08-04 10:12:11 51°16.195 2°54.393 19.3805 4.267532 31.081143 2.286306
2005-08-04 10:12:17 51°16.193 2°54.395 19.3832 4.265769 31.066234 2.286306
2005-08-04 10:12:22 51°16.192 2°54.396 19.3815 4.265354 31.061705 2.286306
2005-08-04 10:12:27 51°16.191 2°54.397 19.3832 4.265354 31.061705 2.286306
2005-08-04 10:12:32 51°16.191 2°54.398 19.385 4.266391 31.069555 2.286306
2005-08-04 10:12:36 51°16.19 2°54.399 19.3845 4.266391 31.068977 2.252597
2005-08-04 10:12:42 51°16.189 2°54.4 19.3868 4.26691 31.072612 2.286306
2005-08-04 10:12:47 51°16.188 2°54.401 19.3875 4.267221 31.074562 2.286306
2005-08-04 10:12:50 51°16.187 2°54.401 19.3902 4.267428 31.075091 2.286306
2005-08-04 10:12:57 51°16.186 2°54.403 19.3922 4.267428 31.075091 2.286306
2005-08-04 10:13:02 51°16.185 2°54.404 19.3884 4.267947 31.078147 2.286306
2005-08-04 10:13:06 51°16.184 2°54.405 19.3896 4.267947 31.077569 2.286306
2005-08-04 10:13:12 51°16.184 2°54.407 19.3912 4.266391 31.064348 2.286306
2005-08-04 10:13:17 51°16.182 2°54.407 19.3945 4.268465 31.080625 2.286306
2005-08-04 10:13:22 51°16.182 2°54.408 19.3943 4.265976 31.059242 2.286306
2005-08-04 10:13:27 51°16.181 2°54.41 19.394 4.265976 31.059242 2.286306
2005-08-04 10:13:32 51°16.18 2°54.411 19.3954 4.262761 31.031387 2.286306
2005-08-04 10:13:36 51°16.179 2°54.412 19.3966 4.251041 30.936204 2.286306
2005-08-04 10:13:42 51°16.178 2°54.413 19.3983 4.276659 31.143738 2.286306
2005-08-04 10:13:46 51°16.177 2°54.414 19.4002 4.276659 31.142579 2.286306
2005-08-04 10:13:50 51°16.177 2°54.415 19.3997 4.276763 31.142262 2.286306
2005-08-04 10:13:57 51°16.176 2°54.417 19.3997 4.276763 31.142262 2.286306
2005-08-04 10:14:02 51°16.175 2°54.418 19.4014 4.276659 31.140839 2.286306
2005-08-04 10:14:06 51°16.174 2°54.419 19.4023 4.27697 31.142209 2.286306
2005-08-04 10:14:12 51°16.174 2°54.421 19.4015 4.27697 31.141629 2.286306
2005-08-04 10:14:17 51°16.173 2°54.422 19.4033 4.277074 31.141892 2.286306
2005-08-04 10:14:22 51°16.172 2°54.423 19.4044 4.277177 31.141575 2.286306
2005-08-04 10:14:26 51°16.171 2°54.424 19.4046 4.277177 31.141575 2.286306
2005-08-04 10:14:32 51°16.17 2°54.426 19.4058 4.277281 31.141839 2.286306
2005-08-04 10:14:36 51°16.17 2°54.427 19.4042 4.277281 31.141259 2.286306
2005-08-04 10:14:42 51°16.169 2°54.428 19.4059 4.277281 31.140679 2.286306
2005-08-04 10:14:47 51°16.168 2°54.43 19.4074 4.277281 31.13952 2.286306
2005-08-04 10:14:50 51°16.167 2°54.431 19.4083 4.277281 31.13952 2.286306
2005-08-04 10:14:57 51°16.167 2°54.433 19.409 4.277281 31.13952 2.286306
2005-08-04 10:15:02 51°16.166 2°54.434 19.4086 4.277385 31.139783 2.286306
2005-08-04 10:15:07 51°16.165 2°54.435 19.41 4.277489 31.140046 2.286306
2005-08-04 10:15:11 51°16.164 2°54.436 19.4093 4.277489 31.139467 2.286306
2005-08-04 10:15:17 51°16.164 2°54.437 19.4105 4.277592 31.13973 2.286306
2005-08-04 10:15:22 51°16.163 2°54.439 19.4101 4.2778 31.140836 2.286306
2005-08-04 10:15:26 51°16.162 2°54.44 19.4104 4.2778 31.140836 2.286306
2005-08-04 10:15:31 51°16.162 2°54.441 19.4097 4.2778 31.140256 2.286306
2005-08-04 10:15:37 51°16.161 2°54.442 19.4098 4.277903 31.14052 2.286306
2005-08-04 10:15:42 51°16.16 2°54.444 19.4106 4.277903 31.13994 2.286306
2005-08-04 10:15:46 51°16.16 2°54.445 19.4109 4.277903 31.13994 2.286306
2005-08-04 10:15:52 51°16.159 2°54.446 19.4115 4.278007 31.140203 2.286306
2005-08-04 10:15:57 51°16.158 2°54.447 19.4131 4.278007 31.140203 2.286306
2005-08-04 10:16:02 51°16.158 2°54.448 19.4127 4.278007 31.140203 2.286306
2005-08-04 10:16:06 51°16.157 2°54.45 19.4158 4.278007 31.139624 2.286306
2005-08-04 10:16:12 51°16.157 2°54.452 19.4162 4.278007 31.139624 2.286306
2005-08-04 10:16:17 51°16.156 2°54.453 19.4159 4.278111 31.140466 2.286306
2005-08-04 10:16:22 51°16.155 2°54.454 19.4156 4.278111 31.139887 2.286306
2005-08-04 10:16:26 51°16.155 2°54.456 19.4166 4.278111 31.139887 2.286306
2005-08-04 10:16:31 51°16.154 2°54.457 19.4167 4.278215 31.14015 2.286306
2005-08-04 10:16:37 51°16.153 2°54.458 19.4172 4.278214 31.139571 2.286306
2005-08-04 10:16:42 51°16.153 2°54.459 19.418 4.278111 31.138149 2.286306
2005-08-04 10:16:46 51°16.152 2°54.461 19.4174 4.278111 31.137569 2.286306
2005-08-04 10:16:51 51°16.151 2°54.462 19.4173 4.278214 31.137833 2.286306
2005-08-04 10:16:57 51°16.151 2°54.464 19.4174 4.278214 31.137833 2.286306
2005-08-04 10:17:02 51°16.15 2°54.465 19.4177 4.278318 31.138096 2.286306
2005-08-04 10:17:06 51°16.15 2°54.466 19.4182 4.278422 31.138359 2.286306
2005-08-04 10:17:11 51°16.149 2°54.467 19.4186 4.278526 31.138622 2.286306
2005-08-04 10:17:17 51°16.148 2°54.469 19.4188 4.278629 31.139465 2.286306
2005-08-04 10:17:22 51°16.148 2°54.47 19.4187 4.278629 31.139465 2.286306
2005-08-04 10:17:26 51°16.147 2°54.471 19.4184 4.278629 31.139465 2.286306
2005-08-04 10:17:31 51°16.146 2°54.472 19.4184 4.278629 31.139465 2.286306
2005-08-04 10:17:37 51°16.146 2°54.474 19.4186 4.278629 31.139465 2.286306
2005-08-04 10:17:42 51°16.145 2°54.476 19.4208 4.278733 31.139728 2.286306
2005-08-04 10:17:47 51°16.144 2°54.477 19.4186 4.278733 31.139728 2.286306
2005-08-04 10:17:51 51°16.144 2°54.478 19.4186 4.278837 31.14057 2.286306
2005-08-04 10:17:57 51°16.143 2°54.48 19.4181 4.278837 31.14057 2.286306
2005-08-04 10:18:02 51°16.142 2°54.481 19.4171 4.278837 31.14057 2.286306
2005-08-04 10:18:07 51°16.142 2°54.482 19.4167 4.278733 31.139149 2.286306
2005-08-04 10:18:12 51°16.141 2°54.484 19.4162 4.278733 31.139149 2.286306
2005-08-04 10:18:17 51°16.14 2°54.485 19.4177 4.278837 31.139991 2.286306
2005-08-04 10:18:22 51°16.14 2°54.487 19.4175 4.278837 31.139412 2.286306
2005-08-04 10:18:26 51°16.139 2°54.489 19.4168 4.278837 31.139412 2.286306
2005-08-04 10:18:32 51°16.138 2°54.49 19.4166 4.278837 31.139991 2.286306
2005-08-04 10:18:37 51°16.137 2°54.491 19.4146 4.278733 31.139149 2.286306
2005-08-04 10:18:42 51°16.137 2°54.492 19.4133 4.278733 31.139728 2.286306
2005-08-04 10:18:47 51°16.136 2°54.494 19.4116 4.278733 31.139728 2.286306
2005-08-04 10:18:51 51°16.135 2°54.495 19.4132 4.278733 31.139728 2.286306
2005-08-04 10:18:57 51°16.135 2°54.497 19.4132 4.278733 31.139728 2.286306
2005-08-04 10:19:02 51°16.134 2°54.499 19.4138 4.278837 31.14057 2.286306
2005-08-04 10:19:06 51°16.133 2°54.5 19.4127 4.278837 31.14115 2.286306
2005-08-04 10:19:11 51°16.133 2°54.501 19.4137 4.278837 31.141729 2.286306
2005-08-04 10:19:17 51°16.132 2°54.503 19.4134 4.27894 31.14373 2.286306
2005-08-04 10:19:22 51°16.131 2°54.504 19.4125 4.278837 31.143467 2.286306
2005-08-04 10:19:27 51°16.131 2°54.506 19.4127 4.278837 31.143467 2.286306
2005-08-04 10:19:32 51°16.13 2°54.507 19.413 4.278941 31.14431 2.286306
2005-08-04 10:19:37 51°16.129 2°54.508 19.4129 4.278941 31.14431 2.286306
2005-08-04 10:19:42 51°16.128 2°54.509 19.4135 4.278837 31.144047 2.286306
2005-08-04 10:19:47 51°16.127 2°54.511 19.4132 4.278837 31.144047 2.286306
2005-08-04 10:19:52 51°16.127 2°54.513 19.4134 4.278941 31.145469 2.286306
2005-08-04 10:19:57 51°16.126 2°54.514 19.4131 4.278941 31.145469 2.286306
2005-08-04 10:20:02 51°16.125 2°54.515 19.4121 4.278941 31.144889 2.286306
2005-08-04 10:20:07 51°16.124 2°54.517 19.4135 4.279044 31.146311 2.286306
2005-08-04 10:20:12 51°16.123 2°54.518 19.4118 4.278941 31.145469 2.286306
2005-08-04 10:20:17 51°16.122 2°54.52 19.4123 4.279044 31.145732 2.286306
2005-08-04 10:20:22 51°16.122 2°54.521 19.4121 4.279044 31.145152 2.286306
2005-08-04 10:20:27 51°16.121 2°54.522 19.4091 4.279044 31.145152 2.286306
2005-08-04 10:20:31 51°16.12 2°54.524 19.4088 4.279044 31.145732 2.286306
2005-08-04 10:20:37 51°16.119 2°54.526 19.4084 4.279044 31.145732 2.286306
2005-08-04 10:20:42 51°16.118 2°54.528 19.4062 4.279044 31.145732 2.286306
2005-08-04 10:20:47 51°16.118 2°54.529 19.4034 4.279044 31.146311 2.286306
2005-08-04 10:20:52 51°16.117 2°54.53 19.4026 4.278941 31.145469 2.286306
2005-08-04 10:20:57 51°16.116 2°54.532 19.3972 4.278941 31.145469 2.286306
2005-08-04 10:21:02 51°16.115 2°54.534 19.3966 4.279044 31.147471 2.286306
2005-08-04 10:21:07 51°16.114 2°54.535 19.3946 4.279044 31.14805 2.286306
2005-08-04 10:21:12 51°16.113 2°54.536 19.3945 4.278941 31.147787 2.286306
2005-08-04 10:21:17 51°16.111 2°54.541 19.393 4.278941 31.148946 2.286306
2005-08-04 10:21:22 51°16.111 2°54.54 19.394 4.278941 31.150685 2.286306
2005-08-04 10:21:26 51°16.11 2°54.541 19.3903 4.278941 31.150685 2.286306
2005-08-04 10:21:31 51°16.11 2°54.542 19.3901 4.278941 31.152425 2.286306
2005-08-04 10:21:37 51°16.108 2°54.544 19.3895 4.278941 31.154164 2.286306
2005-08-04 10:21:42 51°16.108 2°54.546 19.3889 4.278941 31.155904 2.252597
2005-08-04 10:21:46 51°16.107 2°54.547 19.3875 4.278733 31.155378 2.286306
2005-08-04 10:21:51 51°16.106 2°54.548 19.3872 4.278733 31.156538 2.286306
2005-08-04 10:21:57 51°16.105 2°54.55 19.3877 4.278733 31.156538 2.286306
2005-08-04 10:22:02 51°16.105 2°54.551 19.3874 4.27863 31.156855 2.286306
2005-08-04 10:22:06 51°16.104 2°54.553 19.3881 4.27863 31.157435 2.286306
2005-08-04 10:22:11 51°16.103 2°54.554 19.3871 4.27863 31.158595 2.286306
2005-08-04 10:22:17 51°16.102 2°54.556 19.3864 4.278526 31.158333 2.252597
2005-08-04 10:22:22 51°16.101 2°54.557 19.3864 4.278526 31.158913 2.286306
2005-08-04 10:22:27 51°16.102 2°54.558 19.3874 4.278526 31.158913 2.286306
2005-08-04 10:22:32 51°16.1 2°54.56 19.3884 4.278526 31.159493 2.286306
2005-08-04 10:22:36 51°16.099 2°54.561 19.388 4.278526 31.160073 2.252597
2005-08-04 10:22:42 51°16.098 2°54.563 19.3893 4.278422 31.15923 2.286306
2005-08-04 10:22:47 51°16.097 2°54.564 19.3879 4.278526 31.160073 2.286306
2005-08-04 10:22:52 51°16.096 2°54.566 19.3878 4.278422 31.15923 2.286306
2005-08-04 10:22:57 51°16.095 2°54.567 19.3878 4.278422 31.15923 2.286306
2005-08-04 10:23:02 51°16.095 2°54.568 19.3865 4.27863 31.160916 2.286306
2005-08-04 10:23:06 51°16.094 2°54.569 19.387 4.27863 31.160336 2.286306
2005-08-04 10:23:10 51°16.093 2°54.57 19.3865 4.27863 31.160336 2.286306
2005-08-04 10:23:17 51°16.092 2°54.573 19.3873 4.27863 31.160336 2.286306
2005-08-04 10:23:22 51°16.091 2°54.574 19.3866 4.27863 31.160336 2.286306
2005-08-04 10:23:26 51°16.091 2°54.575 19.3871 4.27863 31.160336 2.286306
2005-08-04 10:23:32 51°16.089 2°54.576 19.3865 4.27863 31.160336 2.286306
2005-08-04 10:23:37 51°16.089 2°54.578 19.3878 4.278526 31.159493 2.286306
2005-08-04 10:23:42 51°16.088 2°54.579 19.3866 4.278526 31.160073 2.286306
2005-08-04 10:23:47 51°16.087 2°54.58 19.3851 4.278422 31.15923 2.286306
2005-08-04 10:23:51 51°16.086 2°54.582 19.3848 4.278422 31.15923 2.286306
2005-08-04 10:23:57 51°16.085 2°54.582 19.3828 4.278422 31.15923 2.286306
2005-08-04 10:24:02 51°16.084 2°54.584 19.3842 4.278319 31.158387 2.286306
2005-08-04 10:24:07 51°16.083 2°54.585 19.3873 4.278319 31.158967 2.286306
2005-08-04 10:24:11 51°16.083 2°54.587 19.3854 4.278319 31.158967 2.286306
2005-08-04 10:24:15 51°16.082 2°54.588 19.3838 4.278215 31.158124 2.286306
2005-08-04 10:24:22 51°16.081 2°54.59 19.3862 4.278111 31.157281 2.286306
2005-08-04 10:24:26 51°16.08 2°54.591 19.3853 4.278111 31.157281 2.286306
2005-08-04 10:24:31 51°16.079 2°54.592 19.3873 4.278111 31.158441 2.286306
2005-08-04 10:24:37 51°16.078 2°54.594 19.3858 4.278007 31.157598 2.286306
2005-08-04 10:24:42 51°16.077 2°54.595 19.3859 4.277904 31.156755 2.286306
2005-08-04 10:24:47 51°16.076 2°54.597 19.3853 4.2778 31.155912 2.252597
2005-08-04 10:24:52 51°16.075 2°54.598 19.386 4.277593 31.154226 2.286306
2005-08-04 10:24:57 51°16.074 2°54.599 19.3858 4.277593 31.154226 2.286306
2005-08-04 10:25:02 51°16.074 2°54.601 19.3887 4.277593 31.154226 2.252597
2005-08-04 10:25:06 51°16.073 2°54.602 19.388 4.277593 31.153646 2.286306
2005-08-04 10:25:11 51°16.072 2°54.603 19.388 4.277385 31.151959 2.286306
2005-08-04 10:25:17 51°16.071 2°54.605 19.3876 4.277385 31.151959 2.286306
2005-08-04 10:25:22 51°16.07 2°54.606 19.388 4.277178 31.150853 2.286306
2005-08-04 10:25:27 51°16.069 2°54.607 19.3869 4.277178 31.150853 2.286306
2005-08-04 10:25:31 51°16.068 2°54.609 19.3885 4.277074 31.14943 2.286306
2005-08-04 10:25:37 51°16.068 2°54.61 19.3874 4.276866 31.147164 2.286306
2005-08-04 10:25:42 51°16.067 2°54.612 19.3876 4.27697 31.148007 2.286306
2005-08-04 10:25:47 51°16.066 2°54.613 19.3878 4.276866 31.146584 2.286306
2005-08-04 10:25:52 51°16.065 2°54.614 19.3878 4.276244 31.141526 2.252597
2005-08-04 10:25:57 51°16.064 2°54.616 19.3895 4.276244 31.141526 2.252597
2005-08-04 10:26:02 51°16.063 2°54.617 19.3887 4.273444 31.118766 2.252597
2005-08-04 10:26:06 51°16.063 2°54.618 19.3892 4.276659 31.144898 2.286306
2005-08-04 10:26:11 51°16.062 2°54.62 19.3881 4.276348 31.142369 2.286306
2005-08-04 10:26:17 51°16.061 2°54.622 19.3889 4.27614 31.140683 2.286306
2005-08-04 10:26:22 51°16.06 2°54.623 19.3893 4.275414 31.134782 2.286306
2005-08-04 10:26:27 51°16.059 2°54.624 19.3902 4.275414 31.134782 2.286306
2005-08-04 10:26:31 51°16.059 2°54.626 19.3898 4.276452 31.142632 2.252597
2005-08-04 10:26:37 51°16.058 2°54.627 19.3917 4.276348 31.141209 2.252597
2005-08-04 10:26:42 51°16.057 2°54.629 19.3896 4.276244 31.140366 2.252597
2005-08-04 10:26:46 51°16.056 2°54.63 19.3888 4.27614 31.139523 2.286306
2005-08-04 10:26:51 51°16.055 2°54.632 19.3895 4.274688 31.127722 2.286306
2005-08-04 10:26:57 51°16.054 2°54.633 19.3908 4.274688 31.127722 2.286306
2005-08-04 10:27:02 51°16.054 2°54.635 19.3907 4.27614 31.139523 2.252597
2005-08-04 10:27:06 51°16.053 2°54.636 19.3907 4.275726 31.136152 2.286306
2005-08-04 10:27:11 51°16.052 2°54.638 19.3933 4.275726 31.135572 2.252597
2005-08-04 10:27:17 51°16.051 2°54.639 19.3932 4.275726 31.135572 2.286306
2005-08-04 10:27:22 51°16.05 2°54.641 19.3937 4.275726 31.135572 2.286306
2005-08-04 10:27:27 51°16.049 2°54.643 19.3942 4.275726 31.135572 2.286306
2005-08-04 10:27:32 51°16.048 2°54.644 19.3921 4.275518 31.133886 2.286306
2005-08-04 10:27:37 51°16.047 2°54.646 19.3928 4.275414 31.133043 2.286306
2005-08-04 10:27:42 51°16.047 2°54.647 19.3944 4.275311 31.131621 2.286306
2005-08-04 10:27:47 51°16.046 2°54.648 19.3943 4.275207 31.130198 2.252597
2005-08-04 10:27:52 51°16.045 2°54.65 19.3946 4.271784 31.101806 2.286306
2005-08-04 10:27:57 51°16.044 2°54.652 19.3949 4.271784 31.101806 2.286306
2005-08-04 10:28:02 51°16.044 2°54.654 19.3953 4.275207 31.129039 2.286306
2005-08-04 10:28:06 51°16.043 2°54.655 19.3958 4.275311 31.129882 2.286306
2005-08-04 10:28:11 51°16.042 2°54.657 19.3958 4.275207 31.128459 2.252597
2005-08-04 10:28:17 51°16.041 2°54.658 19.3966 4.275207 31.128459 2.252597
2005-08-04 10:28:22 51°16.041 2°54.66 19.3972 4.275103 31.127037 2.286306
2005-08-04 10:28:26 51°16.04 2°54.661 19.398 4.275103 31.127037 2.286306
2005-08-04 10:28:31 51°16.039 2°54.663 19.3973 4.274999 31.126194 2.252597
2005-08-04 10:28:37 51°16.038 2°54.664 19.3977 4.274999 31.126194 2.286306
2005-08-04 10:28:42 51°16.037 2°54.666 19.3998 4.274999 31.126194 2.286306
2005-08-04 10:28:47 51°16.037 2°54.668 19.403 4.275103 31.125878 2.252597
2005-08-04 10:28:52 51°16.036 2°54.669 19.4039 4.274999 31.125036 2.286306
2005-08-04 10:28:56 51°16.035 2°54.67 19.4038 4.274999 31.125036 2.286306
2005-08-04 10:29:02 51°16.035 2°54.673 19.404 4.275103 31.125299 2.252597
2005-08-04 10:29:07 51°16.034 2°54.674 19.4037 4.275103 31.125299 2.252597
2005-08-04 10:29:12 51°16.033 2°54.676 19.4055 4.275103 31.12472 2.286306
2005-08-04 10:29:17 51°16.032 2°54.677 19.406 4.275103 31.12414 2.286306
2005-08-04 10:29:22 51°16.031 2°54.678 19.4054 4.275207 31.123824 2.252597
2005-08-04 10:29:26 51°16.031 2°54.68 19.4041 4.275207 31.123824 2.252597
2005-08-04 10:29:31 51°16.03 2°54.681 19.4029 4.270332 31.083064 2.286306
2005-08-04 10:29:37 51°16.029 2°54.683 19.4046 4.270332 31.083064 2.286306
2005-08-04 10:29:42 51°16.028 2°54.684 19.4062 4.269399 31.074324 2.286306
2005-08-04 10:29:47 51°16.028 2°54.686 19.4072 4.268569 31.067585 2.286306
2005-08-04 10:29:52 51°16.026 2°54.687 19.4079 4.271369 31.089753 2.252597
2005-08-04 10:29:56 51°16.026 2°54.689 19.4076 4.271369 31.089753 2.252597
2005-08-04 10:30:02 51°16.025 2°54.691 19.4081 4.270643 31.083277 2.286306
2005-08-04 10:30:07 51°16.024 2°54.693 19.4101 4.270332 31.081328 2.252597
2005-08-04 10:30:12 51°16.023 2°54.695 19.4098 4.26888 31.068956 2.286306
2005-08-04 10:30:17 51°16.023 2°54.696 19.41 4.268776 31.067535 2.252597
2005-08-04 10:30:22 51°16.021 2°54.698 19.4104 4.268672 31.066115 2.252597
2005-08-04 10:30:26 51°16.021 2°54.699 19.4111 4.268672 31.066115 2.252597
2005-08-04 10:30:32 51°16.02 2°54.701 19.4127 4.271577 31.089702 2.286306
2005-08-04 10:30:37 51°16.019 2°54.703 19.4134 4.270539 31.080121 2.252597
2005-08-04 10:30:42 51°16.018 2°54.705 19.4142 4.268361 31.062432 2.252597
2005-08-04 10:30:46 51°16.018 2°54.706 19.4142 4.268776 31.065223 2.252597
2005-08-04 10:30:51 51°16.017 2°54.708 19.4137 4.272925 31.09834 2.252597
2005-08-04 10:30:57 51°16.016 2°54.711 19.4139 4.272925 31.09834 2.252597
2005-08-04 10:31:02 51°16.015 2°54.712 19.4167 4.269398 31.069121 2.286306
2005-08-04 10:31:07 51°16.015 2°54.714 19.4181 4.268672 31.062647 2.252597
2005-08-04 10:31:12 51°16.014 2°54.716 19.4192 4.267324 31.05112 2.252597
2005-08-04 10:31:15 51°16.014 2°54.717 19.4201 4.267946 31.055595 2.252597
2005-08-04 10:31:22 51°16.013 2°54.72 19.4235 4.266805 31.045753 2.286306
2005-08-04 10:31:26 51°16.013 2°54.721 19.423 4.266805 31.045753 2.286306
2005-08-04 10:31:30 51°16.012 2°54.723 19.4211 4.268569 31.060071 2.286306
2005-08-04 10:31:37 51°16.012 2°54.726 19.4195 4.267843 31.053597 2.252597
2005-08-04 10:31:42 51°16.013 2°54.729 19.4215 4.263901 31.019866 2.252597
2005-08-04 10:31:47 51°16.014 2°54.732 19.4196 4.275933 31.116982 2.252597
2005-08-04 10:31:52 51°16.015 2°54.735 19.4172 4.276036 31.116667 2.252597
2005-08-04 10:31:57 51°16.016 2°54.739 19.4148 4.276036 31.116667 2.252597
2005-08-04 10:32:02 51°16.018 2°54.741 19.4123 4.27614 31.11693 2.286306
2005-08-04 10:32:06 51°16.019 2°54.745 19.4133 4.276244 31.117194 2.286306
2005-08-04 10:32:12 51°16.022 2°54.749 19.4084 4.276244 31.117194 2.286306
2005-08-04 10:32:17 51°16.025 2°54.752 19.4065 4.276244 31.117773 2.286306
2005-08-04 10:32:22 51°16.027 2°54.754 19.4094 4.276244 31.118351 2.286306
2005-08-04 10:32:26 51°16.029 2°54.757 19.4034 4.276244 31.118351 2.286306
2005-08-04 10:32:31 51°16.032 2°54.76 19.4034 4.276244 31.120088 2.252597
2005-08-04 10:32:37 51°16.035 2°54.763 19.4026 4.276036 31.119561 2.252597
2005-08-04 10:32:42 51°16.038 2°54.765 19.3992 4.275829 31.119034 2.252597
2005-08-04 10:32:46 51°16.041 2°54.766 19.3967 4.275725 31.11935 2.252597
2005-08-04 10:32:52 51°16.045 2°54.768 19.3949 4.275414 31.118559 2.252597
2005-08-04 10:32:57 51°16.049 2°54.769 19.3954 4.275414 31.118559 2.252597
2005-08-04 10:33:02 51°16.052 2°54.77 19.3904 4.27531 31.119454 2.252597
2005-08-04 10:33:07 51°16.055 2°54.77 19.3903 4.274999 31.118664 2.252597
2005-08-04 10:33:11 51°16.058 2°54.769 19.3895 4.274792 31.118137 2.252597
2005-08-04 10:33:15 51°16.061 2°54.769 19.3872 4.274584 31.11761 2.252597
2005-08-04 10:33:22 51°16.065 2°54.767 19.3863 4.274273 31.117398 2.252597
2005-08-04 10:33:26 51°16.067 2°54.765 19.3863 4.274273 31.117398 2.252597
2005-08-04 10:33:30 51°16.07 2°54.764 19.3899 4.274066 31.116871 2.252597
2005-08-04 10:33:37 51°16.074 2°54.76 19.3897 4.273651 31.115238 2.252597
2005-08-04 10:33:42 51°16.077 2°54.757 19.3907 4.273444 31.114711 2.252597
2005-08-04 10:33:46 51°16.079 2°54.755 19.391 4.273236 31.114763 2.252597
2005-08-04 10:33:51 51°16.082 2°54.751 19.3929 4.273029 31.114236 2.286306
2005-08-04 10:33:57 51°16.086 2°54.747 19.3954 4.273029 31.114236 2.286306
2005-08-04 10:34:02 51°16.089 2°54.743 19.3991 4.272821 31.113709 2.252597
2005-08-04 10:34:07 51°16.093 2°54.739 19.3995 4.272821 31.113129 2.252597
2005-08-04 10:34:12 51°16.096 2°54.735 19.4005 4.272718 31.111707 2.252597
2005-08-04 10:34:17 51°16.099 2°54.73 19.4012 4.272821 31.111971 2.252597
2005-08-04 10:34:22 51°16.102 2°54.726 19.4008 4.26888 31.078788 2.252597
2005-08-04 10:34:27 51°16.106 2°54.721 19.4032 4.26888 31.078788 2.252597
2005-08-04 10:34:31 51°16.109 2°54.717 19.4044 4.272925 31.110497 2.286306
2005-08-04 10:34:37 51°16.112 2°54.711 19.4037 4.273133 31.110445 2.252597
2005-08-04 10:34:42 51°16.115 2°54.706 19.4032 4.273132 31.108708 2.252597
2005-08-04 10:34:47 51°16.119 2°54.7 19.4042 4.273236 31.108392 2.252597
2005-08-04 10:34:51 51°16.121 2°54.695 19.4037 4.273236 31.107234 2.252597
2005-08-04 10:34:57 51°16.125 2°54.689 19.4034 4.273236 31.107234 2.252597
2005-08-04 10:35:02 51°16.128 2°54.683 19.4027 4.27334 31.107498 2.252597
2005-08-04 10:35:06 51°16.13 2°54.677 19.4041 4.27334 31.106919 2.252597
2005-08-04 10:35:12 51°16.133 2°54.67 19.4031 4.273236 31.105498 2.252597
2005-08-04 10:35:16 51°16.135 2°54.665 19.4028 4.273236 31.105498 2.252597
2005-08-04 10:35:22 51°16.137 2°54.658 19.4022 4.273236 31.10434 2.252597
2005-08-04 10:35:27 51°16.139 2°54.652 19.4005 4.273236 31.10434 2.252597
2005-08-04 10:35:31 51°16.141 2°54.647 19.4013 4.272925 31.101812 2.252597
2005-08-04 10:35:37 51°16.142 2°54.64 19.399 4.273029 31.102655 2.252597
2005-08-04 10:35:42 51°16.143 2°54.635 19.4006 4.272925 31.102391 2.252597
2005-08-04 10:35:47 51°16.144 2°54.628 19.4037 4.26359 31.026575 2.252597
2005-08-04 10:35:52 51°16.145 2°54.623 19.4052 4.264835 31.03726 2.252597
2005-08-04 10:35:57 51°16.146 2°54.617 19.403 4.264835 31.03726 2.252597
2005-08-04 10:36:02 51°16.146 2°54.611 19.4069 4.263072 31.023519 2.252597
2005-08-04 10:36:07 51°16.147 2°54.606 19.4084 4.265457 31.043469 2.252597
2005-08-04 10:36:12 51°16.148 2°54.601 19.4106 4.262553 31.019885 2.252597
2005-08-04 10:36:15 51°16.148 2°54.597 19.4116 4.266287 31.050208 2.252597
2005-08-04 10:36:22 51°16.149 2°54.59 19.4082 4.264731 31.036418 2.252597
2005-08-04 10:36:26 51°16.149 2°54.587 19.4096 4.264731 31.036418 2.252597
2005-08-04 10:36:30 51°16.15 2°54.582 19.4073 4.265457 31.041158 2.252597
2005-08-04 10:36:37 51°16.15 2°54.576 19.4086 4.262242 31.014472 2.252597
2005-08-04 10:36:42 51°16.151 2°54.573 19.4083 4.264835 31.033795 2.252597
2005-08-04 10:36:46 51°16.152 2°54.569 19.4065 4.27531 31.117717 2.252597
2005-08-04 10:36:51 51°16.152 2°54.564 19.4087 4.275518 31.118823 2.252597
2005-08-04 10:36:57 51°16.153 2°54.56 19.4061 4.275518 31.118823 2.252597
2005-08-04 10:37:02 51°16.154 2°54.557 19.4074 4.275725 31.120508 2.252597
2005-08-04 10:37:07 51°16.155 2°54.553 19.4062 4.275725 31.120508 2.252597
2005-08-04 10:37:11 51°16.156 2°54.55 19.405 4.275622 31.119665 2.252597
2005-08-04 10:37:17 51°16.158 2°54.547 19.4074 4.275414 31.118559 2.252597
2005-08-04 10:37:22 51°16.16 2°54.544 19.4042 4.275414 31.11798 2.252597
2005-08-04 10:37:26 51°16.161 2°54.542 19.4072 4.275414 31.11798 2.252597
2005-08-04 10:37:32 51°16.163 2°54.539 19.4025 4.275518 31.118823 2.252597
2005-08-04 10:37:37 51°16.165 2°54.536 19.4031 4.275414 31.118559 2.252597
2005-08-04 10:37:42 51°16.167 2°54.534 19.403 4.275207 31.118032 2.252597
2005-08-04 10:37:46 51°16.168 2°54.532 19.4031 4.27531 31.119454 2.252597
2005-08-04 10:37:51 51°16.17 2°54.53 19.4038 4.275414 31.120297 2.252597
2005-08-04 10:37:57 51°16.172 2°54.527 19.4038 4.275414 31.120297 2.252597
2005-08-04 10:38:02 51°16.174 2°54.524 19.4041 4.275414 31.120876 2.286306
2005-08-04 10:38:06 51°16.175 2°54.522 19.4051 4.275518 31.121718 2.252597
2005-08-04 10:38:12 51°16.177 2°54.519 19.4 4.275622 31.12314 2.252597
2005-08-04 10:38:17 51°16.179 2°54.517 19.4014 4.275725 31.124562 2.252597
2005-08-04 10:38:22 51°16.18 2°54.514 19.4041 4.275829 31.125405 2.252597
2005-08-04 10:38:27 51°16.182 2°54.512 19.4051 4.275829 31.125405 2.252597
2005-08-04 10:38:32 51°16.183 2°54.509 19.4059 4.275829 31.125405 2.252597
2005-08-04 10:38:37 51°16.184 2°54.506 19.4044 4.276036 31.12709 2.252597
2005-08-04 10:38:42 51°16.186 2°54.503 19.4035 4.27614 31.127933 2.252597
2005-08-04 10:38:46 51°16.187 2°54.501 19.4024 4.27614 31.127933 2.252597
2005-08-04 10:38:52 51°16.188 2°54.498 19.4016 4.276037 31.127669 2.252597
2005-08-04 10:38:57 51°16.19 2°54.494 19.4013 4.276037 31.127669 2.252597
2005-08-04 10:39:02 51°16.191 2°54.492 19.4019 4.276244 31.128196 2.252597
2005-08-04 10:39:06 51°16.192 2°54.489 19.3998 4.276348 31.129039 2.252597
2005-08-04 10:39:11 51°16.193 2°54.486 19.4005 4.276555 31.130145 2.252597
2005-08-04 10:39:17 51°16.195 2°54.482 19.4009 4.276866 31.133252 2.252597
2005-08-04 10:39:22 51°16.196 2°54.479 19.3997 4.276866 31.133831 2.252597
2005-08-04 10:39:27 51°16.197 2°54.475 19.3987 4.276866 31.133831 2.252597
2005-08-04 10:39:32 51°16.198 2°54.472 19.4002 4.276866 31.134411 2.252597
2005-08-04 10:39:37 51°16.199 2°54.469 19.398 4.27697 31.135833 2.252597
2005-08-04 10:39:42 51°16.2 2°54.466 19.4019 4.27697 31.136412 2.252597
2005-08-04 10:39:47 51°16.201 2°54.463 19.4023 4.277177 31.137518 2.252597
2005-08-04 10:39:51 51°16.202 2°54.459 19.405 4.277177 31.138098 2.252597
2005-08-04 10:39:57 51°16.203 2°54.455 19.4088 4.277177 31.138098 2.252597
2005-08-04 10:40:02 51°16.204 2°54.452 19.4049 4.277281 31.13952 2.252597
2005-08-04 10:40:06 51°16.204 2°54.45 19.4056 4.250315 30.920524 2.252597
2005-08-04 10:40:11 51°16.205 2°54.445 19.4023 4.217958 30.658614 2.252597
2005-08-04 10:40:17 51°16.206 2°54.442 19.404 4.212462 30.613489 2.252597
2005-08-04 10:40:22 51°16.207 2°54.438 19.4086 4.223869 30.704828 2.252597
2005-08-04 10:40:27 51°16.208 2°54.434 19.4058 4.223869 30.704828 2.252597
2005-08-04 10:40:32 51°16.208 2°54.431 19.4029 4.235899 30.80125 2.252597
2005-08-04 10:40:37 51°16.209 2°54.427 19.405 4.231336 30.763665 2.252597
2005-08-04 10:40:42 51°16.21 2°54.423 19.4037 4.201365 30.520732 2.252597
2005-08-04 10:40:47 51°16.211 2°54.42 19.3994 4.198669 30.498891 2.252597
2005-08-04 10:40:51 51°16.211 2°54.417 19.3997 4.230195 30.753841 2.252597
2005-08-04 10:40:57 51°16.212 2°54.412 19.3983 4.230195 30.753841 2.252597
2005-08-04 10:41:02 51°16.213 2°54.41 19.3977 4.222832 30.693564 2.252597
2005-08-04 10:41:07 51°16.213 2°54.406 19.3985 4.231232 30.762251 2.252597
2005-08-04 10:41:12 51°16.214 2°54.402 19.399 4.234447 30.788327 2.252597
2005-08-04 10:41:17 51°16.215 2°54.399 19.3932 4.235484 30.797312 2.252597
2005-08-04 10:41:22 51°16.215 2°54.396 19.3972 4.22978 30.752193 2.252597
2005-08-04 10:41:27 51°16.216 2°54.393 19.3916 4.22978 30.752193 2.252597
2005-08-04 10:41:32 51°16.217 2°54.39 19.3911 4.215365 30.636456 2.252597
2005-08-04 10:41:37 51°16.218 2°54.387 19.3917 4.218269 30.660565 2.252597
2005-08-04 10:41:42 51°16.219 2°54.384 19.3873 4.21858 30.663088 2.252597
2005-08-04 10:41:46 51°16.22 2°54.382 19.3912 4.245129 30.879011 2.252597
2005-08-04 10:41:51 51°16.221 2°54.379 19.3911 4.220447 30.680505 2.252597
2005-08-04 10:41:57 51°16.222 2°54.377 19.391 4.220447 30.680505 2.252597
2005-08-04 10:42:02 51°16.223 2°54.374 19.3936 4.23424 30.792947 2.252597
2005-08-04 10:42:06 51°16.224 2°54.372 19.3895 4.212565 30.618888 2.252597
2005-08-04 10:42:12 51°16.225 2°54.369 19.3899 4.19981 30.516079 2.252597
2005-08-04 10:42:17 51°16.226 2°54.367 19.3895 4.279771 31.166128 2.252597
2005-08-04 10:42:22 51°16.227 2°54.364 19.3892 4.279771 31.166128 2.252597
2005-08-04 10:42:27 51°16.229 2°54.362 19.3935 4.279771 31.166128 2.252597
2005-08-04 10:42:31 51°16.23 2°54.36 19.3892 4.279771 31.166128 2.252597
2005-08-04 10:42:37 51°16.231 2°54.357 19.3911 4.279771 31.165548 2.252597
2005-08-04 10:42:42 51°16.232 2°54.355 19.3931 4.279978 31.167814 2.252597
2005-08-04 10:42:47 51°16.233 2°54.353 19.3908 4.280082 31.168657 2.252597
2005-08-04 10:42:52 51°16.234 2°54.35 19.3923 4.280185 31.170661 2.252597
2005-08-04 10:42:57 51°16.235 2°54.348 19.3933 4.280185 31.170661 2.252597
2005-08-04 10:43:02 51°16.236 2°54.345 19.3925 4.280289 31.170924 2.252597
2005-08-04 10:43:06 51°16.237 2°54.343 19.3911 4.280497 31.172029 2.252597
2005-08-04 10:43:11 51°16.238 2°54.341 19.3898 4.280497 31.17261 2.252597
2005-08-04 10:43:15 51°16.239 2°54.339 19.3917 4.280704 31.173715 2.252597
2005-08-04 10:43:22 51°16.24 2°54.336 19.3911 4.280808 31.173978 2.252597
2005-08-04 10:43:27 51°16.241 2°54.333 19.3917 4.280808 31.173978 2.252597
2005-08-04 10:43:32 51°16.242 2°54.331 19.3939 4.280808 31.173978 2.252597
2005-08-04 10:43:37 51°16.243 2°54.329 19.3929 4.280911 31.174821 2.252597
2005-08-04 10:43:42 51°16.244 2°54.327 19.397 4.281119 31.176507 2.252597
2005-08-04 10:43:47 51°16.245 2°54.324 19.3987 4.2778 31.150112 2.252597
2005-08-04 10:43:51 51°16.245 2°54.322 19.3967 4.281741 31.182146 2.252597
2005-08-04 10:43:57 51°16.246 2°54.32 19.3941 4.281741 31.182146 2.252597
2005-08-04 10:44:02 51°16.247 2°54.317 19.3973 4.282052 31.184675 2.252597
2005-08-04 10:44:07 51°16.248 2°54.315 19.3965 4.28226 31.185781 2.252597
2005-08-04 10:44:11 51°16.249 2°54.314 19.3951 4.282675 31.189153 2.252597
2005-08-04 10:44:16 51°16.25 2°54.312 19.3963 4.282986 31.189941 2.252597
2005-08-04 10:44:22 51°16.251 2°54.31 19.3976 4.283401 31.192732 2.252597
2005-08-04 10:44:27 51°16.251 2°54.309 19.396 4.283401 31.192732 2.252597
2005-08-04 10:44:31 51°16.252 2°54.308 19.3965 4.283816 31.196104 2.252597
2005-08-04 10:44:36 51°16.253 2°54.307 19.3968 4.28423 31.198896 2.252597
2005-08-04 10:44:42 51°16.254 2°54.305 19.397 4.284542 31.200844 2.252597
2005-08-04 10:44:46 51°16.254 2°54.305 19.3955 4.284853 31.203954 2.252597
2005-08-04 10:44:51 51°16.255 2°54.304 19.3968 4.284956 31.204217 2.252597
2005-08-04 10:44:57 51°16.256 2°54.303 19.393 4.284956 31.204217 2.252597
2005-08-04 10:45:02 51°16.257 2°54.302 19.3964 4.285268 31.206746 2.252597
2005-08-04 10:45:06 51°16.258 2°54.302 19.3943 4.285579 31.209275 2.252597
2005-08-04 10:45:12 51°16.259 2°54.301 19.3953 4.285786 31.210961 2.252597
2005-08-04 10:45:17 51°16.26 2°54.302 19.3939 4.285994 31.212648 2.252597
2005-08-04 10:45:22 51°16.26 2°54.301 19.3972 4.286201 31.214334 2.252597
2005-08-04 10:45:27 51°16.261 2°54.302 19.3921 4.286201 31.214334 2.252597
2005-08-04 10:45:32 51°16.262 2°54.302 19.3924 4.286512 31.216863 2.252597
2005-08-04 10:45:36 51°16.263 2°54.302 19.3923 4.28672 31.219131 2.252597
2005-08-04 10:45:42 51°16.264 2°54.303 19.3921 4.286927 31.221398 2.252597
2005-08-04 10:45:47 51°16.265 2°54.303 19.3912 4.287135 31.223084 2.252597
2005-08-04 10:45:50 51°16.265 2°54.303 19.3903 4.287135 31.223084 2.252597
2005-08-04 10:45:57 51°16.266 2°54.304 19.3914 4.287135 31.223084 2.252597
2005-08-04 10:46:02 51°16.267 2°54.306 19.3912 4.287342 31.224771 2.252597
2005-08-04 10:46:07 51°16.267 2°54.306 19.3952 4.287446 31.226195 2.252597
2005-08-04 10:46:11 51°16.268 2°54.307 19.3926 4.287757 31.228725 2.252597
2005-08-04 10:46:17 51°16.269 2°54.309 19.3953 4.287861 31.230731 2.252597
2005-08-04 10:46:22 51°16.27 2°54.31 19.3966 4.288068 31.232418 2.252597
2005-08-04 10:46:26 51°16.27 2°54.311 19.3919 4.288068 31.232418 2.252597
2005-08-04 10:46:31 51°16.271 2°54.313 19.3932 4.288172 31.233842 2.252597
2005-08-04 10:46:37 51°16.272 2°54.314 19.3919 4.288276 31.234686 2.252597
2005-08-04 10:46:42 51°16.273 2°54.316 19.3918 4.288587 31.236634 2.252597
2005-08-04 10:46:46 51°16.273 2°54.318 19.3907 4.288794 31.237739 2.252597
2005-08-04 10:46:52 51°16.274 2°54.32 19.3942 4.288898 31.238001 2.252597
2005-08-04 10:46:57 51°16.274 2°54.322 19.3936 4.288898 31.238001 2.252597
2005-08-04 10:47:02 51°16.275 2°54.324 19.3942 4.289209 31.24053 2.252597
2005-08-04 10:47:06 51°16.275 2°54.326 19.3914 4.289209 31.241112 2.252597
2005-08-04 10:47:11 51°16.275 2°54.328 19.3928 4.289313 31.241955 2.252597
2005-08-04 10:47:17 51°16.275 2°54.331 19.3924 4.289313 31.242537 2.252597
2005-08-04 10:47:22 51°16.274 2°54.334 19.393 4.289313 31.242537 2.252597
2005-08-04 10:47:27 51°16.274 2°54.337 19.3946 4.289313 31.242537 2.252597
2005-08-04 10:47:31 51°16.274 2°54.34 19.3919 4.289417 31.24338 2.252597
2005-08-04 10:47:37 51°16.273 2°54.343 19.3891 4.289417 31.242799 2.252597
2005-08-04 10:47:42 51°16.272 2°54.346 19.3825 4.289417 31.242799 2.252597
2005-08-04 10:47:47 51°16.272 2°54.349 19.3854 4.289417 31.242799 2.252597
2005-08-04 10:47:52 51°16.271 2°54.352 19.3815 4.28952 31.244224 2.252597
2005-08-04 10:47:57 51°16.27 2°54.355 19.3798 4.28952 31.244224 2.252597
2005-08-04 10:48:02 51°16.269 2°54.357 19.3752 4.28952 31.244224 2.252597
2005-08-04 10:48:06 51°16.268 2°54.359 19.3734 4.289728 31.246492 2.252597
2005-08-04 10:48:11 51°16.266 2°54.362 19.3692 4.289935 31.249924 2.252597
2005-08-04 10:48:17 51°16.265 2°54.364 19.3689 4.289935 31.25167 2.252597
2005-08-04 10:48:22 51°16.264 2°54.366 19.3694 4.289935 31.252833 2.252597
2005-08-04 10:48:27 51°16.262 2°54.368 19.3705 4.289935 31.252833 2.252597
2005-08-04 10:48:31 51°16.261 2°54.369 19.3742 4.289935 31.255161 2.252597
2005-08-04 10:48:37 51°16.259 2°54.371 19.3755 4.290039 31.258333 2.252597
2005-08-04 10:48:42 51°16.258 2°54.373 19.3719 4.290039 31.26008 2.252597
2005-08-04 10:48:45 51°16.257 2°54.374 19.3722 4.289935 31.261566 2.252597
2005-08-04 10:48:52 51°16.254 2°54.375 19.3721 4.290039 31.263574 2.252597
2005-08-04 10:48:57 51°16.253 2°54.377 19.3734 4.290039 31.263574 2.252597
2005-08-04 10:49:02 51°16.252 2°54.378 19.376 4.289935 31.263313 2.252597
2005-08-04 10:49:07 51°16.25 2°54.379 19.3745 4.289935 31.26273 2.252597
2005-08-04 10:49:12 51°16.248 2°54.38 19.376 4.290039 31.262409 2.252597
2005-08-04 10:49:15 51°16.248 2°54.381 19.3761 4.290143 31.263835 2.252597
2005-08-04 10:49:22 51°16.245 2°54.382 19.377 4.290143 31.263835 2.252597
2005-08-04 10:49:26 51°16.244 2°54.383 19.3764 4.290143 31.263835 2.252597
2005-08-04 10:49:30 51°16.243 2°54.383 19.3784 4.290143 31.263835 2.252597
2005-08-04 10:49:37 51°16.241 2°54.384 19.3803 4.290039 31.262409 2.252597
2005-08-04 10:49:42 51°16.239 2°54.385 19.3823 4.29035 31.264358 2.252597
2005-08-04 10:49:47 51°16.238 2°54.385 19.3814 4.290247 31.262932 2.252597
2005-08-04 10:49:52 51°16.236 2°54.386 19.3799 4.29035 31.263193 2.252597
2005-08-04 10:49:57 51°16.235 2°54.386 19.3771 4.29035 31.263193 2.252597
2005-08-04 10:50:02 51°16.234 2°54.387 19.3777 4.290558 31.264881 2.252597
2005-08-04 10:50:07 51°16.233 2°54.388 19.3797 4.290558 31.263716 2.252597
2005-08-04 10:50:12 51°16.233 2°54.39 19.381 4.290558 31.263134 2.252597
2005-08-04 10:50:17 51°16.233 2°54.392 19.3795 4.290558 31.263134 2.252597
2005-08-04 10:50:22 51°16.233 2°54.395 19.3799 4.290661 31.263395 2.252597
2005-08-04 10:50:26 51°16.233 2°54.398 19.3821 4.290661 31.263395 2.252597
2005-08-04 10:50:31 51°16.234 2°54.402 19.3808 4.290661 31.263395 2.252597
2005-08-04 10:50:37 51°16.236 2°54.407 19.3815 4.290661 31.263395 2.252597
2005-08-04 10:50:42 51°16.238 2°54.411 19.3832 4.290869 31.265082 2.252597
2005-08-04 10:50:47 51°16.239 2°54.415 19.3844 4.290973 31.265926 2.252597
2005-08-04 10:50:52 51°16.241 2°54.419 19.3851 4.290869 31.265082 2.252597
2005-08-04 10:50:57 51°16.243 2°54.423 19.3863 4.290869 31.265082 2.252597
2005-08-04 10:51:02 51°16.246 2°54.426 19.3875 4.290869 31.2645 2.252597
2005-08-04 10:51:06 51°16.248 2°54.429 19.3892 4.290869 31.2645 2.252597
2005-08-04 10:51:12 51°16.252 2°54.433 19.3889 4.290973 31.265344 2.252597
2005-08-04 10:51:17 51°16.257 2°54.436 19.3935 4.29118 31.265866 2.252597
2005-08-04 10:51:22 51°16.261 2°54.438 19.3905 4.29118 31.265284 2.252597
2005-08-04 10:51:27 51°16.266 2°54.439 19.3915 4.29118 31.265284 2.252597
2005-08-04 10:51:32 51°16.271 2°54.438 19.3922 4.291284 31.264963 2.252597
2005-08-04 10:51:37 51°16.275 2°54.437 19.3933 4.291387 31.265225 2.252597
2005-08-04 10:51:42 51°16.279 2°54.436 19.3976 4.291491 31.265486 2.252597
2005-08-04 10:51:46 51°16.282 2°54.435 19.3979 4.291699 31.266591 2.252597
2005-08-04 10:51:51 51°16.285 2°54.435 19.4 4.291802 31.26627 2.252597
2005-08-04 10:51:57 51°16.287 2°54.435 19.3963 4.291802 31.26627 2.252597
2005-08-04 10:52:02 51°16.288 2°54.436 19.3937 4.291699 31.264844 2.252597
2005-08-04 10:52:07 51°16.289 2°54.438 19.3949 4.291698 31.264262 2.252597
2005-08-04 10:52:12 51°16.289 2°54.441 19.3949 4.291698 31.26368 2.252597
2005-08-04 10:52:17 51°16.29 2°54.444 19.393 4.291802 31.262195 2.252597
2005-08-04 10:52:22 51°16.29 2°54.448 19.3927 4.291906 31.261875 2.252597
2005-08-04 10:52:26 51°16.289 2°54.451 19.3944 4.291906 31.261875 2.252597
2005-08-04 10:52:32 51°16.289 2°54.455 19.3942 4.29201 31.262136 2.252597
2005-08-04 10:52:37 51°16.289 2°54.459 19.3914 4.29201 31.262718 2.252597
2005-08-04 10:52:42 51°16.288 2°54.463 19.3916 4.291906 31.262457 2.252597
2005-08-04 10:52:47 51°16.288 2°54.467 19.3897 4.291906 31.262457 2.252597
2005-08-04 10:52:52 51°16.288 2°54.469 19.3911 4.291802 31.261613 2.252597
2005-08-04 10:52:57 51°16.289 2°54.47 19.39 4.291802 31.261613 2.252597
2005-08-04 10:53:02 51°16.29 2°54.471 19.3908 4.291595 31.260509 2.252597
2005-08-04 10:53:06 51°16.291 2°54.471 19.3931 4.291595 31.260509 2.252597
2005-08-04 10:53:11 51°16.292 2°54.47 19.3928 4.291491 31.260247 2.252597
2005-08-04 10:53:17 51°16.294 2°54.467 19.3949 4.291491 31.260829 2.252597
2005-08-04 10:53:23 51°16.295 2°54.464 19.3929 4.291491 31.260829 2.252597
2005-08-04 10:53:27 51°16.295 2°54.461 19.3936 4.291491 31.260829 2.252597
2005-08-04 10:53:31 51°16.296 2°54.458 19.3939 4.291387 31.260568 2.252597
2005-08-04 10:53:37 51°16.296 2°54.453 19.3959 4.291387 31.26115 2.252597
2005-08-04 10:53:42 51°16.296 2°54.45 19.3938 4.291284 31.259724 2.252597
2005-08-04 10:53:46 51°16.295 2°54.447 19.3972 4.29118 31.258299 2.252597
2005-08-04 10:53:52 51°16.294 2°54.443 19.3935 4.291076 31.258038 2.252597
2005-08-04 10:53:57 51°16.293 2°54.439 19.3894 4.291076 31.258038 2.252597
2005-08-04 10:54:02 51°16.292 2°54.435 19.3895 4.29118 31.258299 2.252597
2005-08-04 10:54:06 51°16.291 2°54.432 19.3852 4.291387 31.259404 2.252597
2005-08-04 10:54:12 51°16.29 2°54.428 19.3856 4.291491 31.259665 2.252597
2005-08-04 10:54:17 51°16.288 2°54.423 19.377 4.291595 31.259927 2.252597
2005-08-04 10:54:22 51°16.287 2°54.42 19.3719 4.291595 31.259345 2.252597
2005-08-04 10:54:27 51°16.286 2°54.416 19.3686 4.291595 31.259345 2.252597
2005-08-04 10:54:31 51°16.284 2°54.413 19.3721 4.291698 31.261352 2.252597
2005-08-04 10:54:37 51°16.283 2°54.408 19.3676 4.291698 31.261934 2.252597
2005-08-04 10:54:42 51°16.282 2°54.405 19.3659 4.29201 31.26621 2.252597
2005-08-04 10:54:46 51°16.281 2°54.402 19.3694 4.292113 31.269965 2.252597
2005-08-04 10:54:52 51°16.279 2°54.397 19.3736 4.292217 31.27372 2.252597
2005-08-04 10:54:57 51°16.279 2°54.394 19.3754 4.292217 31.27372 2.252597
2005-08-04 10:55:02 51°16.278 2°54.389 19.3764 4.292114 31.276371 2.252597
2005-08-04 10:55:07 51°16.277 2°54.386 19.3803 4.292114 31.279284 2.252597
2005-08-04 10:55:12 51°16.276 2°54.381 19.3847 4.292114 31.281032 2.252597
2005-08-04 10:55:17 51°16.275 2°54.377 19.3865 4.29201 31.280771 2.252597
2005-08-04 10:55:22 51°16.275 2°54.374 19.39 4.292114 31.281032 2.252597
2005-08-04 10:55:26 51°16.274 2°54.371 19.3892 4.292114 31.281032 2.252597
2005-08-04 10:55:31 51°16.274 2°54.368 19.3891 4.292217 31.280711 2.252597
2005-08-04 10:55:37 51°16.273 2°54.364 19.3895 4.292736 31.282599 2.252597
2005-08-04 10:55:42 51°16.272 2°54.362 19.3888 4.293254 31.285652 2.252597
2005-08-04 10:55:46 51°16.272 2°54.36 19.39 4.293773 31.286957 2.252597
2005-08-04 10:55:51 51°16.271 2°54.358 19.3969 4.294188 31.288001 2.252597
2005-08-04 10:55:57 51°16.27 2°54.355 19.3937 4.294188 31.288001 2.252597
2005-08-04 10:56:02 51°16.269 2°54.354 19.3983 4.294499 31.288784 2.252597
2005-08-04 10:56:07 51°16.268 2°54.352 19.3958 4.294914 31.291576 2.252597
2005-08-04 10:56:12 51°16.267 2°54.35 19.3939 4.295225 31.294107 2.252597
2005-08-04 10:56:17 51°16.267 2°54.349 19.3945 4.295536 31.296055 2.252597
2005-08-04 10:56:22 51°16.266 2°54.349 19.3937 4.295951 31.298847 2.252597
2005-08-04 10:56:26 51°16.265 2°54.348 19.3961 4.295951 31.298847 2.252597
2005-08-04 10:56:32 51°16.264 2°54.345 19.3987 4.296366 31.300473 2.252597
2005-08-04 10:56:37 51°16.263 2°54.343 19.3986 4.296573 31.300994 2.252597
2005-08-04 10:56:42 51°16.262 2°54.34 19.3979 4.296781 31.301516 2.252597
2005-08-04 10:56:46 51°16.262 2°54.338 19.3965 4.297092 31.304046 2.252597
2005-08-04 10:56:52 51°16.261 2°54.335 19.3993 4.297611 31.308264 2.252597
2005-08-04 10:56:56 51°16.261 2°54.333 19.3958 4.297611 31.308264 2.252597
2005-08-04 10:57:02 51°16.26 2°54.331 19.4009 4.297922 31.310795 2.252597
2005-08-04 10:57:06 51°16.26 2°54.329 19.4007 4.298026 31.311055 2.252597
2005-08-04 10:57:12 51°16.259 2°54.327 19.3997 4.298544 31.314107 2.252597
2005-08-04 10:57:17 51°16.259 2°54.326 19.3992 4.298959 31.316898 2.252597
2005-08-04 10:57:22 51°16.259 2°54.325 19.3974 4.29927 31.319429 2.252597
2005-08-04 10:57:27 51°16.259 2°54.323 19.4014 4.29927 31.319429 2.252597
2005-08-04 10:57:32 51°16.258 2°54.322 19.3954 4.299581 31.322543 2.252597
2005-08-04 10:57:37 51°16.258 2°54.321 19.3969 4.300204 31.327604 2.252597
2005-08-04 10:57:42 51°16.258 2°54.321 19.3945 4.300722 31.330655 2.252597
2005-08-04 10:57:47 51°16.257 2°54.32 19.3979 4.301137 31.33403 2.252597
2005-08-04 10:57:51 51°16.257 2°54.32 19.3974 4.301241 31.335457 2.218888
2005-08-04 10:57:57 51°16.257 2°54.319 19.3963 4.301241 31.335457 2.218888
2005-08-04 10:58:02 51°16.257 2°54.319 19.3985 4.301552 31.337987 2.252597
2005-08-04 10:58:07 51°16.257 2°54.319 19.3973 4.301863 31.340518 2.252597
2005-08-04 10:58:12 51°16.257 2°54.318 19.3945 4.302174 31.343633 2.252597
2005-08-04 10:58:14 51°16.257 2°54.318 19.3945 4.302486 31.346747 2.252597
2005-08-04 10:58:22 51°16.257 2°54.319 19.3963 4.302693 31.347851 2.252597
2005-08-04 10:58:27 51°16.257 2°54.319 19.3963 4.302693 31.347851 2.252597
2005-08-04 10:58:32 51°16.258 2°54.319 19.3952 4.303004 31.350966 2.252597
2005-08-04 10:58:37 51°16.258 2°54.32 19.3979 4.303315 31.353497 2.252597
2005-08-04 10:58:42 51°16.258 2°54.32 19.3944 4.303627 31.356028 2.252597
2005-08-04 10:58:46 51°16.258 2°54.321 19.3931 4.303938 31.358559 2.218888
2005-08-04 10:58:51 51°16.257 2°54.322 19.3946 4.304145 31.36083 2.252597
2005-08-04 10:58:57 51°16.257 2°54.323 19.3919 4.304145 31.36083 2.252597
2005-08-04 10:59:02 51°16.256 2°54.324 19.3922 4.304249 31.361674 2.252597
2005-08-04 10:59:07 51°16.256 2°54.325 19.3923 4.30456 31.364205 2.252597
2005-08-04 10:59:12 51°16.256 2°54.326 19.3901 4.304768 31.365309 2.252597
2005-08-04 10:59:17 51°16.256 2°54.327 19.3903 4.304871 31.36732 2.252597
2005-08-04 10:59:22 51°16.256 2°54.33 19.3907 4.305079 31.369592 2.218888
2005-08-04 10:59:27 51°16.256 2°54.331 19.39 4.305079 31.369592 2.218888
2005-08-04 10:59:32 51°16.256 2°54.333 19.3869 4.305286 31.37128 2.252597
2005-08-04 10:59:36 51°16.256 2°54.334 19.3854 4.305286 31.371864 2.252597
2005-08-04 10:59:42 51°16.256 2°54.336 19.387 4.305286 31.371864 2.252597
2005-08-04 10:59:47 51°16.256 2°54.337 19.3842 4.305494 31.37472 2.252597
2005-08-04 10:59:52 51°16.256 2°54.339 19.3838 4.30539 31.373876 2.252597
2005-08-04 10:59:57 51°16.255 2°54.342 19.383 4.30539 31.373876 2.252597
2005-08-04 11:00:02 51°16.255 2°54.343 19.3838 4.30539 31.373876 2.252597
2005-08-04 11:00:06 51°16.255 2°54.345 19.3854 4.305494 31.375888 2.252597
2005-08-04 11:00:11 51°16.255 2°54.347 19.3844 4.305494 31.376472 2.218888
2005-08-04 11:00:17 51°16.255 2°54.349 19.3832 4.30539 31.376797 2.252597
2005-08-04 11:00:22 51°16.255 2°54.351 19.3834 4.305286 31.377121 2.252597
2005-08-04 11:00:27 51°16.255 2°54.354 19.3831 4.305286 31.377121 2.252597
2005-08-04 11:00:32 51°16.255 2°54.357 19.3813 4.305494 31.379394 2.252597
2005-08-04 11:00:37 51°16.255 2°54.359 19.3814 4.305494 31.379978 2.252597
2005-08-04 11:00:42 51°16.255 2°54.361 19.3819 4.305494 31.379394 2.252597
2005-08-04 11:00:46 51°16.255 2°54.363 19.3841 4.305598 31.380822 2.252597
2005-08-04 11:00:51 51°16.255 2°54.366 19.3831 4.305805 31.38251 2.252597
2005-08-04 11:00:57 51°16.255 2°54.369 19.3844 4.305805 31.38251 2.252597
2005-08-04 11:01:02 51°16.255 2°54.371 19.3841 4.305805 31.383095 2.252597
2005-08-04 11:01:07 51°16.256 2°54.374 19.3819 4.305805 31.384264 2.218888
2005-08-04 11:01:12 51°16.256 2°54.376 19.382 4.305805 31.384264 2.252597
2005-08-04 11:01:17 51°16.256 2°54.379 19.3825 4.305909 31.385108 2.252597
2005-08-04 11:01:22 51°16.256 2°54.382 19.3845 4.305909 31.384523 2.218888
2005-08-04 11:01:27 51°16.256 2°54.385 19.3814 4.305909 31.384523 2.218888
2005-08-04 11:01:32 51°16.256 2°54.389 19.3836 4.305909 31.383939 2.252597
2005-08-04 11:01:37 51°16.256 2°54.391 19.3788 4.306013 31.384783 2.252597
2005-08-04 11:01:42 51°16.256 2°54.394 19.3808 4.30622 31.386471 2.252597
2005-08-04 11:01:46 51°16.256 2°54.397 19.3778 4.306427 31.388744 2.252597
2005-08-04 11:01:52 51°16.256 2°54.401 19.382 4.306324 31.387899 2.218888
2005-08-04 11:01:57 51°16.256 2°54.404 19.3784 4.306324 31.387899 2.218888
2005-08-04 11:02:02 51°16.256 2°54.407 19.3796 4.30622 31.387055 2.252597
2005-08-04 11:02:07 51°16.256 2°54.41 19.3795 4.306324 31.387899 2.252597
2005-08-04 11:02:11 51°16.256 2°54.413 19.3756 4.306427 31.389913 2.252597
2005-08-04 11:02:15 51°16.256 2°54.416 19.3759 4.306531 31.391342 2.252597
2005-08-04 11:02:22 51°16.256 2°54.42 19.373 4.306324 31.389653 2.252597
2005-08-04 11:02:27 51°16.256 2°54.424 19.3743 4.306324 31.389653 2.252597
2005-08-04 11:02:31 51°16.256 2°54.426 19.3761 4.306324 31.390238 2.218888
2005-08-04 11:02:37 51°16.256 2°54.43 19.374 4.306116 31.389134 2.252597
2005-08-04 11:02:42 51°16.256 2°54.434 19.3752 4.30622 31.389978 2.252597
2005-08-04 11:02:47 51°16.257 2°54.437 19.3759 4.306116 31.389719 2.252597
2005-08-04 11:02:51 51°16.257 2°54.44 19.3769 4.306116 31.390304 2.218888
2005-08-04 11:02:57 51°16.257 2°54.444 19.3731 4.306116 31.390304 2.218888
2005-08-04 11:03:02 51°16.257 2°54.446 19.3766 4.306013 31.390629 2.218888
2005-08-04 11:03:06 51°16.257 2°54.449 19.3758 4.306116 31.391473 2.252597